<?xml version="1.0" encoding="UTF-8" standalone="no" ?>
<gpx xmlns="http://www.topografix.com/GPX/1/1" xmlns:xsi="http://www.w3.org/2001/XMLSchema-instance" xsi:schemaLocation="http://www.topografix.com/GPX/1/1 http://www.topografix.com/GPX/1/1/gpx.xsd" version="1.1" creator="VisuGPX - https://www.visugpx.com">
  <metadata>
    <name>J3-Crete Feston</name>
    <desc><![CDATA[VTT - Variante terre noire
A commencer avec braisse de blanchard]]></desc>
  </metadata>
  <wpt lat="44.2178" lon="6.03073">
    <ele>1107.556152</ele>
    <name><![CDATA[J3-TNoire-Feston]]></name>
    <desc><![CDATA[04-FEV-07 10:40:18]]></desc>
    <cmt><![CDATA[04-FEV-07 10:40:18]]></cmt>
  </wpt>
  <wpt lat="44.4551" lon="5.59185">
    <ele>1245.023682</ele>
    <name><![CDATA[002]]></name>
    <desc><![CDATA[25-FEV-07 10:03:00]]></desc>
    <cmt><![CDATA[25-FEV-07 10:03:00]]></cmt>
  </wpt>
  <wpt lat="44.4657" lon="5.56984">
    <ele>1262.327148</ele>
    <name><![CDATA[003]]></name>
    <desc><![CDATA[18-MAR-07 8:58:49]]></desc>
    <cmt><![CDATA[18-MAR-07 8:58:49]]></cmt>
  </wpt>
  <wpt lat="44.15225" lon="5.31857">
    <ele>1423.587158</ele>
    <name><![CDATA[004]]></name>
    <desc><![CDATA[26-MAR-07 11:41:43]]></desc>
    <cmt><![CDATA[26-MAR-07 11:41:43]]></cmt>
  </wpt>
  <wpt lat="43.1417" lon="5.91814">
    <ele>62.37085</ele>
    <name><![CDATA[005]]></name>
    <desc><![CDATA[29-MAR-07 8:45:03]]></desc>
    <cmt><![CDATA[29-MAR-07 8:45:03]]></cmt>
  </wpt>
  <trk>
    <name><![CDATA[terres noire pascal]]></name>
    <trkseg>
      <trkpt lat="44.09071" lon="6.23228">
        <ele>600.480713</ele>
        <time>2007-04-22T07:24:58Z</time>
      </trkpt>
      <trkpt lat="44.0907" lon="6.23228">
        <ele>600.480713</ele>
        <time>2007-04-22T07:24:59Z</time>
      </trkpt>
      <trkpt lat="44.0907" lon="6.23228">
        <ele>601.922607</ele>
        <time>2007-04-22T07:25:01Z</time>
      </trkpt>
      <trkpt lat="44.0907" lon="6.23228">
        <ele>603.364502</ele>
        <time>2007-04-22T07:25:04Z</time>
      </trkpt>
      <trkpt lat="44.0907" lon="6.23227">
        <ele>606.729248</ele>
        <time>2007-04-22T07:25:23Z</time>
      </trkpt>
      <trkpt lat="44.09068" lon="6.23227">
        <ele>608.171387</ele>
        <time>2007-04-22T07:26:07Z</time>
      </trkpt>
      <trkpt lat="44.09068" lon="6.23223">
        <ele>608.651855</ele>
        <time>2007-04-22T07:26:37Z</time>
      </trkpt>
      <trkpt lat="44.09068" lon="6.23224">
        <ele>608.651855</ele>
        <time>2007-04-22T07:27:00Z</time>
      </trkpt>
      <trkpt lat="44.09071" lon="6.23225">
        <ele>608.651855</ele>
        <time>2007-04-22T07:28:02Z</time>
      </trkpt>
      <trkpt lat="44.0907" lon="6.23227">
        <ele>608.171387</ele>
        <time>2007-04-22T07:29:53Z</time>
      </trkpt>
      <trkpt lat="44.0907" lon="6.23226">
        <ele>607.690674</ele>
        <time>2007-04-22T07:31:18Z</time>
      </trkpt>
      <trkpt lat="44.09074" lon="6.23222">
        <ele>607.209961</ele>
        <time>2007-04-22T07:32:40Z</time>
      </trkpt>
      <trkpt lat="44.09069" lon="6.23224">
        <ele>607.209961</ele>
        <time>2007-04-22T07:33:27Z</time>
      </trkpt>
      <trkpt lat="44.0907" lon="6.23223">
        <ele>606.729248</ele>
        <time>2007-04-22T07:33:42Z</time>
      </trkpt>
      <trkpt lat="44.09069" lon="6.23224">
        <ele>607.209961</ele>
        <time>2007-04-22T07:35:06Z</time>
      </trkpt>
      <trkpt lat="44.09072" lon="6.23221">
        <ele>606.729248</ele>
        <time>2007-04-22T07:35:57Z</time>
      </trkpt>
      <trkpt lat="44.09071" lon="6.23223">
        <ele>606.729248</ele>
        <time>2007-04-22T07:36:30Z</time>
      </trkpt>
      <trkpt lat="44.09069" lon="6.23224">
        <ele>607.209961</ele>
        <time>2007-04-22T07:37:41Z</time>
      </trkpt>
      <trkpt lat="44.09069" lon="6.23222">
        <ele>606.729248</ele>
        <time>2007-04-22T07:38:44Z</time>
      </trkpt>
      <trkpt lat="44.09071" lon="6.23224">
        <ele>606.729248</ele>
        <time>2007-04-22T07:39:14Z</time>
      </trkpt>
      <trkpt lat="44.09072" lon="6.23237">
        <ele>606.729248</ele>
        <time>2007-04-22T07:39:19Z</time>
      </trkpt>
      <trkpt lat="44.09078" lon="6.23265">
        <ele>607.690674</ele>
        <time>2007-04-22T07:39:26Z</time>
      </trkpt>
      <trkpt lat="44.09075" lon="6.23282">
        <ele>606.729248</ele>
        <time>2007-04-22T07:39:30Z</time>
      </trkpt>
      <trkpt lat="44.09066" lon="6.23306">
        <ele>607.209961</ele>
        <time>2007-04-22T07:39:36Z</time>
      </trkpt>
      <trkpt lat="44.09052" lon="6.23399">
        <ele>608.171387</ele>
        <time>2007-04-22T07:39:54Z</time>
      </trkpt>
      <trkpt lat="44.09051" lon="6.2347">
        <ele>608.651855</ele>
        <time>2007-04-22T07:40:09Z</time>
      </trkpt>
      <trkpt lat="44.09041" lon="6.23563">
        <ele>609.613281</ele>
        <time>2007-04-22T07:40:27Z</time>
      </trkpt>
      <trkpt lat="44.0902" lon="6.2366">
        <ele>611.055176</ele>
        <time>2007-04-22T07:40:46Z</time>
      </trkpt>
      <trkpt lat="44.09018" lon="6.23671">
        <ele>611.055176</ele>
        <time>2007-04-22T07:40:48Z</time>
      </trkpt>
      <trkpt lat="44.09007" lon="6.23705">
        <ele>611.055176</ele>
        <time>2007-04-22T07:40:55Z</time>
      </trkpt>
      <trkpt lat="44.08992" lon="6.23795">
        <ele>611.535889</ele>
        <time>2007-04-22T07:41:10Z</time>
      </trkpt>
      <trkpt lat="44.08979" lon="6.2386">
        <ele>612.016602</ele>
        <time>2007-04-22T07:41:21Z</time>
      </trkpt>
      <trkpt lat="44.08966" lon="6.23966">
        <ele>612.977783</ele>
        <time>2007-04-22T07:41:39Z</time>
      </trkpt>
      <trkpt lat="44.08979" lon="6.24037">
        <ele>613.938965</ele>
        <time>2007-04-22T07:41:54Z</time>
      </trkpt>
      <trkpt lat="44.09004" lon="6.24098">
        <ele>614.900391</ele>
        <time>2007-04-22T07:42:08Z</time>
      </trkpt>
      <trkpt lat="44.09034" lon="6.24157">
        <ele>615.861816</ele>
        <time>2007-04-22T07:42:21Z</time>
      </trkpt>
      <trkpt lat="44.0904" lon="6.24171">
        <ele>615.861816</ele>
        <time>2007-04-22T07:42:24Z</time>
      </trkpt>
      <trkpt lat="44.09066" lon="6.24224">
        <ele>616.342285</ele>
        <time>2007-04-22T07:42:35Z</time>
      </trkpt>
      <trkpt lat="44.09109" lon="6.24305">
        <ele>617.78418</ele>
        <time>2007-04-22T07:42:53Z</time>
      </trkpt>
      <trkpt lat="44.09118" lon="6.24369">
        <ele>620.187744</ele>
        <time>2007-04-22T07:43:07Z</time>
      </trkpt>
      <trkpt lat="44.09127" lon="6.24425">
        <ele>623.071777</ele>
        <time>2007-04-22T07:43:20Z</time>
      </trkpt>
      <trkpt lat="44.09138" lon="6.24483">
        <ele>624.994385</ele>
        <time>2007-04-22T07:43:34Z</time>
      </trkpt>
      <trkpt lat="44.09149" lon="6.24566">
        <ele>625.955566</ele>
        <time>2007-04-22T07:43:53Z</time>
      </trkpt>
      <trkpt lat="44.09139" lon="6.24658">
        <ele>626.436279</ele>
        <time>2007-04-22T07:44:10Z</time>
      </trkpt>
      <trkpt lat="44.09114" lon="6.24775">
        <ele>626.436279</ele>
        <time>2007-04-22T07:44:29Z</time>
      </trkpt>
      <trkpt lat="44.09113" lon="6.2478">
        <ele>626.436279</ele>
        <time>2007-04-22T07:44:30Z</time>
      </trkpt>
      <trkpt lat="44.0907" lon="6.24858">
        <ele>626.916992</ele>
        <time>2007-04-22T07:44:45Z</time>
      </trkpt>
      <trkpt lat="44.0902" lon="6.24929">
        <ele>629.320068</ele>
        <time>2007-04-22T07:45:01Z</time>
      </trkpt>
      <trkpt lat="44.09009" lon="6.24962">
        <ele>629.800781</ele>
        <time>2007-04-22T07:45:07Z</time>
      </trkpt>
      <trkpt lat="44.09005" lon="6.2498">
        <ele>630.281494</ele>
        <time>2007-04-22T07:45:10Z</time>
      </trkpt>
      <trkpt lat="44.08989" lon="6.25019">
        <ele>630.762207</ele>
        <time>2007-04-22T07:45:17Z</time>
      </trkpt>
      <trkpt lat="44.08976" lon="6.25057">
        <ele>631.24292</ele>
        <time>2007-04-22T07:45:24Z</time>
      </trkpt>
      <trkpt lat="44.08944" lon="6.25209">
        <ele>634.607422</ele>
        <time>2007-04-22T07:45:50Z</time>
      </trkpt>
      <trkpt lat="44.08936" lon="6.25306">
        <ele>636.049561</ele>
        <time>2007-04-22T07:46:07Z</time>
      </trkpt>
      <trkpt lat="44.08934" lon="6.25404">
        <ele>634.126709</ele>
        <time>2007-04-22T07:46:21Z</time>
      </trkpt>
      <trkpt lat="44.08942" lon="6.25438">
        <ele>633.645996</ele>
        <time>2007-04-22T07:46:26Z</time>
      </trkpt>
      <trkpt lat="44.08997" lon="6.25527">
        <ele>634.126709</ele>
        <time>2007-04-22T07:46:42Z</time>
      </trkpt>
      <trkpt lat="44.09015" lon="6.25555">
        <ele>634.126709</ele>
        <time>2007-04-22T07:46:47Z</time>
      </trkpt>
      <trkpt lat="44.09024" lon="6.25569">
        <ele>634.126709</ele>
        <time>2007-04-22T07:46:50Z</time>
      </trkpt>
      <trkpt lat="44.09034" lon="6.2564">
        <ele>636.049561</ele>
        <time>2007-04-22T07:47:03Z</time>
      </trkpt>
      <trkpt lat="44.09035" lon="6.25664">
        <ele>636.049561</ele>
        <time>2007-04-22T07:47:07Z</time>
      </trkpt>
      <trkpt lat="44.09045" lon="6.25691">
        <ele>636.049561</ele>
        <time>2007-04-22T07:47:12Z</time>
      </trkpt>
      <trkpt lat="44.09053" lon="6.25704">
        <ele>636.530273</ele>
        <time>2007-04-22T07:47:15Z</time>
      </trkpt>
      <trkpt lat="44.09065" lon="6.2573">
        <ele>637.491455</ele>
        <time>2007-04-22T07:47:20Z</time>
      </trkpt>
      <trkpt lat="44.09066" lon="6.25845">
        <ele>638.452881</ele>
        <time>2007-04-22T07:47:38Z</time>
      </trkpt>
      <trkpt lat="44.0906" lon="6.25878">
        <ele>638.452881</ele>
        <time>2007-04-22T07:47:43Z</time>
      </trkpt>
      <trkpt lat="44.09056" lon="6.25888">
        <ele>638.933594</ele>
        <time>2007-04-22T07:47:45Z</time>
      </trkpt>
      <trkpt lat="44.09004" lon="6.25969">
        <ele>638.933594</ele>
        <time>2007-04-22T07:48:02Z</time>
      </trkpt>
      <trkpt lat="44.08979" lon="6.2606">
        <ele>638.933594</ele>
        <time>2007-04-22T07:48:17Z</time>
      </trkpt>
      <trkpt lat="44.08964" lon="6.2612">
        <ele>638.933594</ele>
        <time>2007-04-22T07:48:27Z</time>
      </trkpt>
      <trkpt lat="44.08949" lon="6.26146">
        <ele>638.933594</ele>
        <time>2007-04-22T07:48:32Z</time>
      </trkpt>
      <trkpt lat="44.08893" lon="6.26221">
        <ele>639.894775</ele>
        <time>2007-04-22T07:48:48Z</time>
      </trkpt>
      <trkpt lat="44.08864" lon="6.26299">
        <ele>640.855957</ele>
        <time>2007-04-22T07:49:01Z</time>
      </trkpt>
      <trkpt lat="44.08859" lon="6.2631">
        <ele>640.855957</ele>
        <time>2007-04-22T07:49:03Z</time>
      </trkpt>
      <trkpt lat="44.08847" lon="6.26397">
        <ele>642.778809</ele>
        <time>2007-04-22T07:49:16Z</time>
      </trkpt>
      <trkpt lat="44.08853" lon="6.26427">
        <ele>642.778809</ele>
        <time>2007-04-22T07:49:21Z</time>
      </trkpt>
      <trkpt lat="44.08881" lon="6.26521">
        <ele>644.220703</ele>
        <time>2007-04-22T07:49:38Z</time>
      </trkpt>
      <trkpt lat="44.08904" lon="6.26591">
        <ele>644.701172</ele>
        <time>2007-04-22T07:49:51Z</time>
      </trkpt>
      <trkpt lat="44.08929" lon="6.26674">
        <ele>646.624023</ele>
        <time>2007-04-22T07:50:07Z</time>
      </trkpt>
      <trkpt lat="44.08954" lon="6.26734">
        <ele>647.104492</ele>
        <time>2007-04-22T07:50:20Z</time>
      </trkpt>
      <trkpt lat="44.08996" lon="6.26827">
        <ele>648.546387</ele>
        <time>2007-04-22T07:50:39Z</time>
      </trkpt>
      <trkpt lat="44.09032" lon="6.26895">
        <ele>649.988525</ele>
        <time>2007-04-22T07:50:53Z</time>
      </trkpt>
      <trkpt lat="44.09041" lon="6.26933">
        <ele>649.988525</ele>
        <time>2007-04-22T07:51:00Z</time>
      </trkpt>
      <trkpt lat="44.09046" lon="6.27046">
        <ele>651.911133</ele>
        <time>2007-04-22T07:51:19Z</time>
      </trkpt>
      <trkpt lat="44.09048" lon="6.27087">
        <ele>652.872559</ele>
        <time>2007-04-22T07:51:26Z</time>
      </trkpt>
      <trkpt lat="44.09043" lon="6.27162">
        <ele>654.314697</ele>
        <time>2007-04-22T07:51:39Z</time>
      </trkpt>
      <trkpt lat="44.09005" lon="6.27277">
        <ele>655.275879</ele>
        <time>2007-04-22T07:52:00Z</time>
      </trkpt>
      <trkpt lat="44.08971" lon="6.27373">
        <ele>655.756592</ele>
        <time>2007-04-22T07:52:18Z</time>
      </trkpt>
      <trkpt lat="44.08945" lon="6.2748">
        <ele>657.679199</ele>
        <time>2007-04-22T07:52:38Z</time>
      </trkpt>
      <trkpt lat="44.08921" lon="6.27569">
        <ele>659.121094</ele>
        <time>2007-04-22T07:52:54Z</time>
      </trkpt>
      <trkpt lat="44.08896" lon="6.27676">
        <ele>659.601807</ele>
        <time>2007-04-22T07:53:13Z</time>
      </trkpt>
      <trkpt lat="44.08896" lon="6.27694">
        <ele>660.082275</ele>
        <time>2007-04-22T07:53:16Z</time>
      </trkpt>
      <trkpt lat="44.08897" lon="6.27718">
        <ele>660.562988</ele>
        <time>2007-04-22T07:53:20Z</time>
      </trkpt>
      <trkpt lat="44.08931" lon="6.27825">
        <ele>663.447021</ele>
        <time>2007-04-22T07:53:41Z</time>
      </trkpt>
      <trkpt lat="44.08956" lon="6.27921">
        <ele>665.369629</ele>
        <time>2007-04-22T07:54:00Z</time>
      </trkpt>
      <trkpt lat="44.08956" lon="6.28012">
        <ele>667.292236</ele>
        <time>2007-04-22T07:54:17Z</time>
      </trkpt>
      <trkpt lat="44.08909" lon="6.28084">
        <ele>669.215088</ele>
        <time>2007-04-22T07:54:34Z</time>
      </trkpt>
      <trkpt lat="44.08898" lon="6.28151">
        <ele>671.618164</ele>
        <time>2007-04-22T07:54:48Z</time>
      </trkpt>
      <trkpt lat="44.0893" lon="6.28221">
        <ele>673.060303</ele>
        <time>2007-04-22T07:55:04Z</time>
      </trkpt>
      <trkpt lat="44.08945" lon="6.28294">
        <ele>674.98291</ele>
        <time>2007-04-22T07:55:20Z</time>
      </trkpt>
      <trkpt lat="44.08903" lon="6.28337">
        <ele>677.866699</ele>
        <time>2007-04-22T07:55:36Z</time>
      </trkpt>
      <trkpt lat="44.08863" lon="6.28366">
        <ele>680.27002</ele>
        <time>2007-04-22T07:55:51Z</time>
      </trkpt>
      <trkpt lat="44.08848" lon="6.28418">
        <ele>682.67334</ele>
        <time>2007-04-22T07:56:04Z</time>
      </trkpt>
      <trkpt lat="44.08861" lon="6.28466">
        <ele>685.557373</ele>
        <time>2007-04-22T07:56:18Z</time>
      </trkpt>
      <trkpt lat="44.08864" lon="6.28514">
        <ele>688.922119</ele>
        <time>2007-04-22T07:56:32Z</time>
      </trkpt>
      <trkpt lat="44.0886" lon="6.28554">
        <ele>691.805908</ele>
        <time>2007-04-22T07:56:44Z</time>
      </trkpt>
      <trkpt lat="44.08858" lon="6.28603">
        <ele>694.689697</ele>
        <time>2007-04-22T07:56:59Z</time>
      </trkpt>
      <trkpt lat="44.0888" lon="6.28652">
        <ele>697.57373</ele>
        <time>2007-04-22T07:57:17Z</time>
      </trkpt>
      <trkpt lat="44.08927" lon="6.28697">
        <ele>699.977051</ele>
        <time>2007-04-22T07:57:37Z</time>
      </trkpt>
      <trkpt lat="44.08947" lon="6.28719">
        <ele>699.977051</ele>
        <time>2007-04-22T07:57:45Z</time>
      </trkpt>
      <trkpt lat="44.08933" lon="6.28742">
        <ele>699.977051</ele>
        <time>2007-04-22T07:57:53Z</time>
      </trkpt>
      <trkpt lat="44.08921" lon="6.28787">
        <ele>702.380371</ele>
        <time>2007-04-22T07:58:08Z</time>
      </trkpt>
      <trkpt lat="44.08896" lon="6.28825">
        <ele>705.745117</ele>
        <time>2007-04-22T07:58:23Z</time>
      </trkpt>
      <trkpt lat="44.08874" lon="6.28867">
        <ele>708.628906</ele>
        <time>2007-04-22T07:58:39Z</time>
      </trkpt>
      <trkpt lat="44.08884" lon="6.28906">
        <ele>711.512939</ele>
        <time>2007-04-22T07:58:53Z</time>
      </trkpt>
      <trkpt lat="44.08892" lon="6.28936">
        <ele>713.435547</ele>
        <time>2007-04-22T07:59:03Z</time>
      </trkpt>
      <trkpt lat="44.08907" lon="6.29002">
        <ele>716.31958</ele>
        <time>2007-04-22T07:59:23Z</time>
      </trkpt>
      <trkpt lat="44.08917" lon="6.29052">
        <ele>719.203613</ele>
        <time>2007-04-22T07:59:38Z</time>
      </trkpt>
      <trkpt lat="44.0893" lon="6.29111">
        <ele>721.606689</ele>
        <time>2007-04-22T07:59:56Z</time>
      </trkpt>
      <trkpt lat="44.08954" lon="6.29149">
        <ele>724.490723</ele>
        <time>2007-04-22T08:00:12Z</time>
      </trkpt>
      <trkpt lat="44.08981" lon="6.29167">
        <ele>727.855225</ele>
        <time>2007-04-22T08:00:25Z</time>
      </trkpt>
      <trkpt lat="44.08999" lon="6.29208">
        <ele>729.777832</ele>
        <time>2007-04-22T08:00:41Z</time>
      </trkpt>
      <trkpt lat="44.09004" lon="6.29246">
        <ele>731.219971</ele>
        <time>2007-04-22T08:00:53Z</time>
      </trkpt>
      <trkpt lat="44.09006" lon="6.29302">
        <ele>733.623291</ele>
        <time>2007-04-22T08:01:10Z</time>
      </trkpt>
      <trkpt lat="44.09017" lon="6.29359">
        <ele>736.507324</ele>
        <time>2007-04-22T08:01:27Z</time>
      </trkpt>
      <trkpt lat="44.09028" lon="6.29418">
        <ele>739.871826</ele>
        <time>2007-04-22T08:01:44Z</time>
      </trkpt>
      <trkpt lat="44.0905" lon="6.29451">
        <ele>742.275146</ele>
        <time>2007-04-22T08:01:58Z</time>
      </trkpt>
      <trkpt lat="44.09084" lon="6.29495">
        <ele>745.639648</ele>
        <time>2007-04-22T08:02:16Z</time>
      </trkpt>
      <trkpt lat="44.09114" lon="6.29539">
        <ele>747.562256</ele>
        <time>2007-04-22T08:02:33Z</time>
      </trkpt>
      <trkpt lat="44.0912" lon="6.29576">
        <ele>749.004395</ele>
        <time>2007-04-22T08:02:44Z</time>
      </trkpt>
      <trkpt lat="44.09134" lon="6.29626">
        <ele>752.368896</ele>
        <time>2007-04-22T08:02:59Z</time>
      </trkpt>
      <trkpt lat="44.09149" lon="6.29661">
        <ele>752.368896</ele>
        <time>2007-04-22T08:03:13Z</time>
      </trkpt>
      <trkpt lat="44.09159" lon="6.29676">
        <ele>752.849609</ele>
        <time>2007-04-22T08:03:21Z</time>
      </trkpt>
      <trkpt lat="44.09163" lon="6.29682">
        <ele>752.849609</ele>
        <time>2007-04-22T08:03:27Z</time>
      </trkpt>
      <trkpt lat="44.09158" lon="6.29675">
        <ele>752.368896</ele>
        <time>2007-04-22T08:03:32Z</time>
      </trkpt>
      <trkpt lat="44.09152" lon="6.29669">
        <ele>752.849609</ele>
        <time>2007-04-22T08:03:40Z</time>
      </trkpt>
      <trkpt lat="44.09154" lon="6.29672">
        <ele>752.849609</ele>
        <time>2007-04-22T08:03:42Z</time>
      </trkpt>
      <trkpt lat="44.0919" lon="6.29722">
        <ele>752.849609</ele>
        <time>2007-04-22T08:03:59Z</time>
      </trkpt>
      <trkpt lat="44.09214" lon="6.29753">
        <ele>753.811035</ele>
        <time>2007-04-22T08:04:10Z</time>
      </trkpt>
      <trkpt lat="44.09216" lon="6.29757">
        <ele>754.291748</ele>
        <time>2007-04-22T08:04:13Z</time>
      </trkpt>
      <trkpt lat="44.09215" lon="6.29761">
        <ele>753.811035</ele>
        <time>2007-04-22T08:04:20Z</time>
      </trkpt>
      <trkpt lat="44.09208" lon="6.29765">
        <ele>753.811035</ele>
        <time>2007-04-22T08:04:30Z</time>
      </trkpt>
      <trkpt lat="44.09215" lon="6.29765">
        <ele>753.330322</ele>
        <time>2007-04-22T08:04:37Z</time>
      </trkpt>
      <trkpt lat="44.09211" lon="6.29783">
        <ele>753.811035</ele>
        <time>2007-04-22T08:04:45Z</time>
      </trkpt>
      <trkpt lat="44.09207" lon="6.29781">
        <ele>753.811035</ele>
        <time>2007-04-22T08:04:48Z</time>
      </trkpt>
      <trkpt lat="44.09189" lon="6.29766">
        <ele>754.772217</ele>
        <time>2007-04-22T08:04:57Z</time>
      </trkpt>
      <trkpt lat="44.09181" lon="6.29758">
        <ele>755.733643</ele>
        <time>2007-04-22T08:05:02Z</time>
      </trkpt>
      <trkpt lat="44.09173" lon="6.29749">
        <ele>756.214111</ele>
        <time>2007-04-22T08:05:07Z</time>
      </trkpt>
      <trkpt lat="44.09146" lon="6.29719">
        <ele>759.098145</ele>
        <time>2007-04-22T08:05:25Z</time>
      </trkpt>
      <trkpt lat="44.0912" lon="6.29702">
        <ele>761.020752</ele>
        <time>2007-04-22T08:05:41Z</time>
      </trkpt>
      <trkpt lat="44.09106" lon="6.29687">
        <ele>762.943359</ele>
        <time>2007-04-22T08:05:50Z</time>
      </trkpt>
      <trkpt lat="44.09098" lon="6.29688">
        <ele>763.424072</ele>
        <time>2007-04-22T08:05:55Z</time>
      </trkpt>
      <trkpt lat="44.09078" lon="6.29729">
        <ele>766.308105</ele>
        <time>2007-04-22T08:06:12Z</time>
      </trkpt>
      <trkpt lat="44.09068" lon="6.29776">
        <ele>769.192139</ele>
        <time>2007-04-22T08:06:29Z</time>
      </trkpt>
      <trkpt lat="44.09073" lon="6.29819">
        <ele>771.595215</ele>
        <time>2007-04-22T08:06:45Z</time>
      </trkpt>
      <trkpt lat="44.09085" lon="6.29862">
        <ele>774.959961</ele>
        <time>2007-04-22T08:07:01Z</time>
      </trkpt>
      <trkpt lat="44.09109" lon="6.29897">
        <ele>777.84375</ele>
        <time>2007-04-22T08:07:18Z</time>
      </trkpt>
      <trkpt lat="44.09135" lon="6.29933">
        <ele>781.20874</ele>
        <time>2007-04-22T08:07:36Z</time>
      </trkpt>
      <trkpt lat="44.09159" lon="6.29958">
        <ele>784.092529</ele>
        <time>2007-04-22T08:07:51Z</time>
      </trkpt>
      <trkpt lat="44.09193" lon="6.2999">
        <ele>787.937744</ele>
        <time>2007-04-22T08:08:11Z</time>
      </trkpt>
      <trkpt lat="44.09227" lon="6.30017">
        <ele>790.821533</ele>
        <time>2007-04-22T08:08:30Z</time>
      </trkpt>
      <trkpt lat="44.09248" lon="6.30044">
        <ele>794.186279</ele>
        <time>2007-04-22T08:08:44Z</time>
      </trkpt>
      <trkpt lat="44.09244" lon="6.30088">
        <ele>796.589844</ele>
        <time>2007-04-22T08:08:59Z</time>
      </trkpt>
      <trkpt lat="44.09222" lon="6.30106">
        <ele>798.99292</ele>
        <time>2007-04-22T08:09:13Z</time>
      </trkpt>
      <trkpt lat="44.09189" lon="6.30097">
        <ele>801.39624</ele>
        <time>2007-04-22T08:09:30Z</time>
      </trkpt>
      <trkpt lat="44.09158" lon="6.30077">
        <ele>804.760742</ele>
        <time>2007-04-22T08:09:47Z</time>
      </trkpt>
      <trkpt lat="44.09128" lon="6.30069">
        <ele>807.644775</ele>
        <time>2007-04-22T08:10:03Z</time>
      </trkpt>
      <trkpt lat="44.09096" lon="6.30051">
        <ele>810.047852</ele>
        <time>2007-04-22T08:10:20Z</time>
      </trkpt>
      <trkpt lat="44.09071" lon="6.30037">
        <ele>811.970703</ele>
        <time>2007-04-22T08:10:33Z</time>
      </trkpt>
      <trkpt lat="44.09065" lon="6.30044">
        <ele>812.932129</ele>
        <time>2007-04-22T08:10:37Z</time>
      </trkpt>
      <trkpt lat="44.09047" lon="6.30061">
        <ele>814.854736</ele>
        <time>2007-04-22T08:10:50Z</time>
      </trkpt>
      <trkpt lat="44.09035" lon="6.30022">
        <ele>817.258057</ele>
        <time>2007-04-22T08:11:04Z</time>
      </trkpt>
      <trkpt lat="44.09013" lon="6.30013">
        <ele>820.141846</ele>
        <time>2007-04-22T08:11:17Z</time>
      </trkpt>
      <trkpt lat="44.09009" lon="6.30048">
        <ele>821.58374</ele>
        <time>2007-04-22T08:11:30Z</time>
      </trkpt>
      <trkpt lat="44.09011" lon="6.30084">
        <ele>824.467773</ele>
        <time>2007-04-22T08:11:43Z</time>
      </trkpt>
      <trkpt lat="44.09" lon="6.3013">
        <ele>827.351807</ele>
        <time>2007-04-22T08:12:01Z</time>
      </trkpt>
      <trkpt lat="44.08981" lon="6.30165">
        <ele>830.23584</ele>
        <time>2007-04-22T08:12:17Z</time>
      </trkpt>
      <trkpt lat="44.08971" lon="6.30175">
        <ele>831.197266</ele>
        <time>2007-04-22T08:12:23Z</time>
      </trkpt>
      <trkpt lat="44.08941" lon="6.30185">
        <ele>833.600342</ele>
        <time>2007-04-22T08:12:38Z</time>
      </trkpt>
      <trkpt lat="44.08927" lon="6.3018">
        <ele>835.522949</ele>
        <time>2007-04-22T08:12:45Z</time>
      </trkpt>
      <trkpt lat="44.08891" lon="6.30171">
        <ele>838.406982</ele>
        <time>2007-04-22T08:13:03Z</time>
      </trkpt>
      <trkpt lat="44.08855" lon="6.30166">
        <ele>841.290771</ele>
        <time>2007-04-22T08:13:21Z</time>
      </trkpt>
      <trkpt lat="44.08827" lon="6.30179">
        <ele>844.655518</ele>
        <time>2007-04-22T08:13:36Z</time>
      </trkpt>
      <trkpt lat="44.08823" lon="6.30205">
        <ele>847.539551</ele>
        <time>2007-04-22T08:13:50Z</time>
      </trkpt>
      <trkpt lat="44.08847" lon="6.30217">
        <ele>850.904053</ele>
        <time>2007-04-22T08:14:04Z</time>
      </trkpt>
      <trkpt lat="44.08848" lon="6.30223">
        <ele>851.384766</ele>
        <time>2007-04-22T08:14:07Z</time>
      </trkpt>
      <trkpt lat="44.08845" lon="6.3023">
        <ele>851.865479</ele>
        <time>2007-04-22T08:14:11Z</time>
      </trkpt>
      <trkpt lat="44.08816" lon="6.30238">
        <ele>855.22998</ele>
        <time>2007-04-22T08:14:28Z</time>
      </trkpt>
      <trkpt lat="44.08793" lon="6.30262">
        <ele>858.114014</ele>
        <time>2007-04-22T08:14:45Z</time>
      </trkpt>
      <trkpt lat="44.08778" lon="6.30272">
        <ele>860.998047</ele>
        <time>2007-04-22T08:14:56Z</time>
      </trkpt>
      <trkpt lat="44.08773" lon="6.30271">
        <ele>862.920654</ele>
        <time>2007-04-22T08:15:00Z</time>
      </trkpt>
      <trkpt lat="44.08754" lon="6.30283">
        <ele>865.804688</ele>
        <time>2007-04-22T08:15:16Z</time>
      </trkpt>
      <trkpt lat="44.08756" lon="6.30309">
        <ele>868.688477</ele>
        <time>2007-04-22T08:15:29Z</time>
      </trkpt>
      <trkpt lat="44.08749" lon="6.30314">
        <ele>870.130371</ele>
        <time>2007-04-22T08:15:35Z</time>
      </trkpt>
      <trkpt lat="44.08734" lon="6.30307">
        <ele>872.533691</ele>
        <time>2007-04-22T08:15:47Z</time>
      </trkpt>
      <trkpt lat="44.08717" lon="6.30322">
        <ele>875.898193</ele>
        <time>2007-04-22T08:16:03Z</time>
      </trkpt>
      <trkpt lat="44.08713" lon="6.30339">
        <ele>877.340576</ele>
        <time>2007-04-22T08:16:12Z</time>
      </trkpt>
      <trkpt lat="44.0872" lon="6.30364">
        <ele>879.262939</ele>
        <time>2007-04-22T08:16:25Z</time>
      </trkpt>
      <trkpt lat="44.08732" lon="6.30398">
        <ele>881.66626</ele>
        <time>2007-04-22T08:16:41Z</time>
      </trkpt>
      <trkpt lat="44.08733" lon="6.30415">
        <ele>883.588867</ele>
        <time>2007-04-22T08:16:50Z</time>
      </trkpt>
      <trkpt lat="44.08731" lon="6.30419">
        <ele>884.06958</ele>
        <time>2007-04-22T08:16:52Z</time>
      </trkpt>
      <trkpt lat="44.08715" lon="6.30409">
        <ele>885.992188</ele>
        <time>2007-04-22T08:17:05Z</time>
      </trkpt>
      <trkpt lat="44.08695" lon="6.30403">
        <ele>887.434082</ele>
        <time>2007-04-22T08:17:18Z</time>
      </trkpt>
      <trkpt lat="44.08692" lon="6.30417">
        <ele>888.876221</ele>
        <time>2007-04-22T08:17:26Z</time>
      </trkpt>
      <trkpt lat="44.08704" lon="6.30442">
        <ele>892.240967</ele>
        <time>2007-04-22T08:17:41Z</time>
      </trkpt>
      <trkpt lat="44.08705" lon="6.30443">
        <ele>892.240967</ele>
        <time>2007-04-22T08:17:42Z</time>
      </trkpt>
      <trkpt lat="44.08709" lon="6.30462">
        <ele>893.682861</ele>
        <time>2007-04-22T08:17:55Z</time>
      </trkpt>
      <trkpt lat="44.08707" lon="6.30464">
        <ele>894.163574</ele>
        <time>2007-04-22T08:17:57Z</time>
      </trkpt>
      <trkpt lat="44.08695" lon="6.30464">
        <ele>896.086182</ele>
        <time>2007-04-22T08:18:06Z</time>
      </trkpt>
      <trkpt lat="44.08687" lon="6.30483">
        <ele>898.489258</ele>
        <time>2007-04-22T08:18:18Z</time>
      </trkpt>
      <trkpt lat="44.08694" lon="6.30503">
        <ele>900.892578</ele>
        <time>2007-04-22T08:18:29Z</time>
      </trkpt>
      <trkpt lat="44.08707" lon="6.3052">
        <ele>903.295898</ele>
        <time>2007-04-22T08:18:41Z</time>
      </trkpt>
      <trkpt lat="44.08725" lon="6.3055">
        <ele>906.179688</ele>
        <time>2007-04-22T08:18:58Z</time>
      </trkpt>
      <trkpt lat="44.08742" lon="6.30578">
        <ele>909.063965</ele>
        <time>2007-04-22T08:19:15Z</time>
      </trkpt>
      <trkpt lat="44.08757" lon="6.30606">
        <ele>912.428467</ele>
        <time>2007-04-22T08:19:30Z</time>
      </trkpt>
      <trkpt lat="44.08781" lon="6.30603">
        <ele>913.870361</ele>
        <time>2007-04-22T08:19:45Z</time>
      </trkpt>
      <trkpt lat="44.08809" lon="6.30574">
        <ele>916.754395</ele>
        <time>2007-04-22T08:20:03Z</time>
      </trkpt>
      <trkpt lat="44.08835" lon="6.30556">
        <ele>919.638428</ele>
        <time>2007-04-22T08:20:20Z</time>
      </trkpt>
      <trkpt lat="44.08858" lon="6.30572">
        <ele>922.041504</ele>
        <time>2007-04-22T08:20:35Z</time>
      </trkpt>
      <trkpt lat="44.0889" lon="6.30576">
        <ele>924.445068</ele>
        <time>2007-04-22T08:20:54Z</time>
      </trkpt>
      <trkpt lat="44.08918" lon="6.3057">
        <ele>927.329102</ele>
        <time>2007-04-22T08:21:09Z</time>
      </trkpt>
      <trkpt lat="44.08951" lon="6.30575">
        <ele>929.732178</ele>
        <time>2007-04-22T08:21:26Z</time>
      </trkpt>
      <trkpt lat="44.08953" lon="6.30576">
        <ele>929.732178</ele>
        <time>2007-04-22T08:21:27Z</time>
      </trkpt>
      <trkpt lat="44.08949" lon="6.30598">
        <ele>932.135498</ele>
        <time>2007-04-22T08:21:40Z</time>
      </trkpt>
      <trkpt lat="44.08947" lon="6.30599">
        <ele>932.616211</ele>
        <time>2007-04-22T08:21:41Z</time>
      </trkpt>
      <trkpt lat="44.08917" lon="6.30612">
        <ele>934.538818</ele>
        <time>2007-04-22T08:21:57Z</time>
      </trkpt>
      <trkpt lat="44.08898" lon="6.30654">
        <ele>936.941895</ele>
        <time>2007-04-22T08:22:15Z</time>
      </trkpt>
      <trkpt lat="44.08901" lon="6.30696">
        <ele>938.864746</ele>
        <time>2007-04-22T08:22:31Z</time>
      </trkpt>
      <trkpt lat="44.08906" lon="6.30734">
        <ele>942.229492</ele>
        <time>2007-04-22T08:22:45Z</time>
      </trkpt>
      <trkpt lat="44.08899" lon="6.30783">
        <ele>944.632568</ele>
        <time>2007-04-22T08:23:04Z</time>
      </trkpt>
      <trkpt lat="44.08903" lon="6.30825">
        <ele>947.997314</ele>
        <time>2007-04-22T08:23:21Z</time>
      </trkpt>
      <trkpt lat="44.08899" lon="6.30855">
        <ele>949.919922</ele>
        <time>2007-04-22T08:23:34Z</time>
      </trkpt>
      <trkpt lat="44.08873" lon="6.30867">
        <ele>952.322998</ele>
        <time>2007-04-22T08:23:48Z</time>
      </trkpt>
      <trkpt lat="44.08854" lon="6.3089">
        <ele>955.207031</ele>
        <time>2007-04-22T08:24:02Z</time>
      </trkpt>
      <trkpt lat="44.08842" lon="6.30934">
        <ele>958.091309</ele>
        <time>2007-04-22T08:24:21Z</time>
      </trkpt>
      <trkpt lat="44.08823" lon="6.30956">
        <ele>960.494385</ele>
        <time>2007-04-22T08:24:35Z</time>
      </trkpt>
      <trkpt lat="44.088" lon="6.30936">
        <ele>962.416992</ele>
        <time>2007-04-22T08:24:49Z</time>
      </trkpt>
      <trkpt lat="44.08777" lon="6.30931">
        <ele>965.301025</ele>
        <time>2007-04-22T08:25:04Z</time>
      </trkpt>
      <trkpt lat="44.08773" lon="6.3094">
        <ele>965.781738</ele>
        <time>2007-04-22T08:25:19Z</time>
      </trkpt>
      <trkpt lat="44.08773" lon="6.30942">
        <ele>966.74292</ele>
        <time>2007-04-22T08:26:47Z</time>
      </trkpt>
      <trkpt lat="44.08774" lon="6.30942">
        <ele>966.74292</ele>
        <time>2007-04-22T08:27:10Z</time>
      </trkpt>
      <trkpt lat="44.08774" lon="6.30941">
        <ele>966.262207</ele>
        <time>2007-04-22T08:28:09Z</time>
      </trkpt>
      <trkpt lat="44.08773" lon="6.30943">
        <ele>966.74292</ele>
        <time>2007-04-22T08:28:36Z</time>
      </trkpt>
      <trkpt lat="44.08774" lon="6.30944">
        <ele>966.74292</ele>
        <time>2007-04-22T08:29:12Z</time>
      </trkpt>
      <trkpt lat="44.08774" lon="6.30944">
        <ele>966.74292</ele>
        <time>2007-04-22T08:29:30Z</time>
      </trkpt>
      <trkpt lat="44.08777" lon="6.30945">
        <ele>967.223633</ele>
        <time>2007-04-22T08:29:33Z</time>
      </trkpt>
      <trkpt lat="44.08777" lon="6.30958">
        <ele>967.223633</ele>
        <time>2007-04-22T08:29:39Z</time>
      </trkpt>
      <trkpt lat="44.08772" lon="6.31001">
        <ele>971.068848</ele>
        <time>2007-04-22T08:29:56Z</time>
      </trkpt>
      <trkpt lat="44.0876" lon="6.31034">
        <ele>972.510986</ele>
        <time>2007-04-22T08:30:10Z</time>
      </trkpt>
      <trkpt lat="44.08762" lon="6.31084">
        <ele>973.472412</ele>
        <time>2007-04-22T08:30:27Z</time>
      </trkpt>
      <trkpt lat="44.08756" lon="6.31132">
        <ele>975.394775</ele>
        <time>2007-04-22T08:30:45Z</time>
      </trkpt>
      <trkpt lat="44.08736" lon="6.3118">
        <ele>977.798096</ele>
        <time>2007-04-22T08:31:04Z</time>
      </trkpt>
      <trkpt lat="44.08706" lon="6.31199">
        <ele>978.759521</ele>
        <time>2007-04-22T08:31:18Z</time>
      </trkpt>
      <trkpt lat="44.08713" lon="6.31217">
        <ele>981.162842</ele>
        <time>2007-04-22T08:31:28Z</time>
      </trkpt>
      <trkpt lat="44.08721" lon="6.31212">
        <ele>981.643311</ele>
        <time>2007-04-22T08:31:33Z</time>
      </trkpt>
      <trkpt lat="44.08756" lon="6.3119">
        <ele>984.527344</ele>
        <time>2007-04-22T08:31:52Z</time>
      </trkpt>
      <trkpt lat="44.08786" lon="6.31163">
        <ele>987.411133</ele>
        <time>2007-04-22T08:32:09Z</time>
      </trkpt>
      <trkpt lat="44.08827" lon="6.31172">
        <ele>989.333984</ele>
        <time>2007-04-22T08:32:28Z</time>
      </trkpt>
      <trkpt lat="44.08859" lon="6.31194">
        <ele>991.737305</ele>
        <time>2007-04-22T08:32:44Z</time>
      </trkpt>
      <trkpt lat="44.08892" lon="6.31207">
        <ele>994.140625</ele>
        <time>2007-04-22T08:33:01Z</time>
      </trkpt>
      <trkpt lat="44.08929" lon="6.31222">
        <ele>996.063232</ele>
        <time>2007-04-22T08:33:19Z</time>
      </trkpt>
      <trkpt lat="44.08939" lon="6.31264">
        <ele>998.466309</ele>
        <time>2007-04-22T08:33:35Z</time>
      </trkpt>
      <trkpt lat="44.08942" lon="6.313">
        <ele>1000.869629</ele>
        <time>2007-04-22T08:33:49Z</time>
      </trkpt>
      <trkpt lat="44.08923" lon="6.31337">
        <ele>1002.792236</ele>
        <time>2007-04-22T08:34:07Z</time>
      </trkpt>
      <trkpt lat="44.08894" lon="6.31349">
        <ele>1005.676514</ele>
        <time>2007-04-22T08:34:23Z</time>
      </trkpt>
      <trkpt lat="44.08856" lon="6.31338">
        <ele>1008.560303</ele>
        <time>2007-04-22T08:34:43Z</time>
      </trkpt>
      <trkpt lat="44.08853" lon="6.31361">
        <ele>1009.521729</ele>
        <time>2007-04-22T08:34:54Z</time>
      </trkpt>
      <trkpt lat="44.08879" lon="6.3138">
        <ele>1012.88623</ele>
        <time>2007-04-22T08:35:10Z</time>
      </trkpt>
      <trkpt lat="44.08903" lon="6.3141">
        <ele>1014.808838</ele>
        <time>2007-04-22T08:35:27Z</time>
      </trkpt>
      <trkpt lat="44.08935" lon="6.31428">
        <ele>1016.731445</ele>
        <time>2007-04-22T08:35:45Z</time>
      </trkpt>
      <trkpt lat="44.08965" lon="6.31425">
        <ele>1017.692627</ele>
        <time>2007-04-22T08:35:58Z</time>
      </trkpt>
      <trkpt lat="44.08994" lon="6.31426">
        <ele>1019.615479</ele>
        <time>2007-04-22T08:36:11Z</time>
      </trkpt>
      <trkpt lat="44.09042" lon="6.31435">
        <ele>1021.057617</ele>
        <time>2007-04-22T08:36:30Z</time>
      </trkpt>
      <trkpt lat="44.09045" lon="6.31434">
        <ele>1015.770264</ele>
        <time>2007-04-22T08:36:31Z</time>
      </trkpt>
      <trkpt lat="44.09048" lon="6.31433">
        <ele>1020.576904</ele>
        <time>2007-04-22T08:36:32Z</time>
      </trkpt>
      <trkpt lat="44.09053" lon="6.31431">
        <ele>1024.902832</ele>
        <time>2007-04-22T08:36:34Z</time>
      </trkpt>
      <trkpt lat="44.09055" lon="6.3143">
        <ele>1021.538086</ele>
        <time>2007-04-22T08:36:35Z</time>
      </trkpt>
      <trkpt lat="44.0908" lon="6.31409">
        <ele>1021.538086</ele>
        <time>2007-04-22T08:36:46Z</time>
      </trkpt>
      <trkpt lat="44.09112" lon="6.31396">
        <ele>1023.460938</ele>
        <time>2007-04-22T08:36:59Z</time>
      </trkpt>
      <trkpt lat="44.09135" lon="6.31427">
        <ele>1024.422119</ele>
        <time>2007-04-22T08:37:10Z</time>
      </trkpt>
      <trkpt lat="44.0916" lon="6.31468">
        <ele>1025.383301</ele>
        <time>2007-04-22T08:37:24Z</time>
      </trkpt>
      <trkpt lat="44.09194" lon="6.31488">
        <ele>1027.786621</ele>
        <time>2007-04-22T08:37:37Z</time>
      </trkpt>
      <trkpt lat="44.09219" lon="6.31489">
        <ele>1028.267334</ele>
        <time>2007-04-22T08:37:47Z</time>
      </trkpt>
      <trkpt lat="44.09247" lon="6.31514">
        <ele>1028.748047</ele>
        <time>2007-04-22T08:37:59Z</time>
      </trkpt>
      <trkpt lat="44.09276" lon="6.31562">
        <ele>1028.267334</ele>
        <time>2007-04-22T08:38:13Z</time>
      </trkpt>
      <trkpt lat="44.09308" lon="6.31606">
        <ele>1027.306152</ele>
        <time>2007-04-22T08:38:27Z</time>
      </trkpt>
      <trkpt lat="44.09335" lon="6.31594">
        <ele>1025.383301</ele>
        <time>2007-04-22T08:38:33Z</time>
      </trkpt>
      <trkpt lat="44.09345" lon="6.31582">
        <ele>1024.902832</ele>
        <time>2007-04-22T08:38:35Z</time>
      </trkpt>
      <trkpt lat="44.09373" lon="6.31599">
        <ele>1021.057617</ele>
        <time>2007-04-22T08:38:41Z</time>
      </trkpt>
      <trkpt lat="44.09363" lon="6.3165">
        <ele>1018.654053</ele>
        <time>2007-04-22T08:38:47Z</time>
      </trkpt>
      <trkpt lat="44.09365" lon="6.31671">
        <ele>1017.692627</ele>
        <time>2007-04-22T08:38:49Z</time>
      </trkpt>
      <trkpt lat="44.0937" lon="6.31691">
        <ele>1017.212158</ele>
        <time>2007-04-22T08:38:51Z</time>
      </trkpt>
      <trkpt lat="44.09392" lon="6.3172">
        <ele>1015.289551</ele>
        <time>2007-04-22T08:38:55Z</time>
      </trkpt>
      <trkpt lat="44.09415" lon="6.31725">
        <ele>1013.847412</ele>
        <time>2007-04-22T08:38:58Z</time>
      </trkpt>
      <trkpt lat="44.09433" lon="6.31745">
        <ele>1012.88623</ele>
        <time>2007-04-22T08:39:01Z</time>
      </trkpt>
      <trkpt lat="44.09429" lon="6.31804">
        <ele>1010.48291</ele>
        <time>2007-04-22T08:39:08Z</time>
      </trkpt>
      <trkpt lat="44.0943" lon="6.31826">
        <ele>1009.521729</ele>
        <time>2007-04-22T08:39:10Z</time>
      </trkpt>
      <trkpt lat="44.09421" lon="6.31891">
        <ele>1006.637695</ele>
        <time>2007-04-22T08:39:16Z</time>
      </trkpt>
      <trkpt lat="44.09425" lon="6.31923">
        <ele>1003.272949</ele>
        <time>2007-04-22T08:39:19Z</time>
      </trkpt>
      <trkpt lat="44.09414" lon="6.31948">
        <ele>1001.350342</ele>
        <time>2007-04-22T08:39:22Z</time>
      </trkpt>
      <trkpt lat="44.09427" lon="6.31967">
        <ele>999.427734</ele>
        <time>2007-04-22T08:39:26Z</time>
      </trkpt>
      <trkpt lat="44.09446" lon="6.31974">
        <ele>998.947021</ele>
        <time>2007-04-22T08:39:29Z</time>
      </trkpt>
      <trkpt lat="44.09471" lon="6.32019">
        <ele>995.101807</ele>
        <time>2007-04-22T08:39:35Z</time>
      </trkpt>
      <trkpt lat="44.09502" lon="6.32043">
        <ele>993.179199</ele>
        <time>2007-04-22T08:39:40Z</time>
      </trkpt>
      <trkpt lat="44.09524" lon="6.32047">
        <ele>992.69873</ele>
        <time>2007-04-22T08:39:43Z</time>
      </trkpt>
      <trkpt lat="44.09549" lon="6.32048">
        <ele>992.218018</ele>
        <time>2007-04-22T08:39:47Z</time>
      </trkpt>
      <trkpt lat="44.09585" lon="6.32055">
        <ele>992.69873</ele>
        <time>2007-04-22T08:39:58Z</time>
      </trkpt>
      <trkpt lat="44.09586" lon="6.32055">
        <ele>992.69873</ele>
        <time>2007-04-22T08:39:59Z</time>
      </trkpt>
      <trkpt lat="44.09595" lon="6.32058">
        <ele>992.69873</ele>
        <time>2007-04-22T08:40:06Z</time>
      </trkpt>
      <trkpt lat="44.09597" lon="6.32062">
        <ele>987.891846</ele>
        <time>2007-04-22T08:40:11Z</time>
      </trkpt>
      <trkpt lat="44.09596" lon="6.32062">
        <ele>997.505127</ele>
        <time>2007-04-22T08:40:12Z</time>
      </trkpt>
      <trkpt lat="44.09597" lon="6.32061">
        <ele>993.659912</ele>
        <time>2007-04-22T08:40:31Z</time>
      </trkpt>
      <trkpt lat="44.09597" lon="6.32061">
        <ele>993.659912</ele>
        <time>2007-04-22T08:40:18Z</time>
      </trkpt>
      <trkpt lat="44.09627" lon="6.32059">
        <ele>993.179199</ele>
        <time>2007-04-22T08:40:32Z</time>
      </trkpt>
      <trkpt lat="44.09656" lon="6.3204">
        <ele>993.659912</ele>
        <time>2007-04-22T08:40:44Z</time>
      </trkpt>
      <trkpt lat="44.09644" lon="6.31987">
        <ele>995.101807</ele>
        <time>2007-04-22T08:40:56Z</time>
      </trkpt>
      <trkpt lat="44.09636" lon="6.31966">
        <ele>996.543945</ele>
        <time>2007-04-22T08:41:03Z</time>
      </trkpt>
      <trkpt lat="44.09636" lon="6.31963">
        <ele>996.063232</ele>
        <time>2007-04-22T08:41:04Z</time>
      </trkpt>
      <trkpt lat="44.09642" lon="6.31955">
        <ele>997.024414</ele>
        <time>2007-04-22T08:41:08Z</time>
      </trkpt>
      <trkpt lat="44.09651" lon="6.31961">
        <ele>997.505127</ele>
        <time>2007-04-22T08:41:14Z</time>
      </trkpt>
      <trkpt lat="44.09673" lon="6.31984">
        <ele>999.908447</ele>
        <time>2007-04-22T08:41:26Z</time>
      </trkpt>
      <trkpt lat="44.09696" lon="6.32016">
        <ele>1000.38916</ele>
        <time>2007-04-22T08:41:39Z</time>
      </trkpt>
      <trkpt lat="44.09723" lon="6.32015">
        <ele>1001.831055</ele>
        <time>2007-04-22T08:41:50Z</time>
      </trkpt>
      <trkpt lat="44.09754" lon="6.32014">
        <ele>1003.272949</ele>
        <time>2007-04-22T08:42:01Z</time>
      </trkpt>
      <trkpt lat="44.09785" lon="6.32015">
        <ele>1004.715088</ele>
        <time>2007-04-22T08:42:14Z</time>
      </trkpt>
      <trkpt lat="44.09808" lon="6.32035">
        <ele>1005.676514</ele>
        <time>2007-04-22T08:42:25Z</time>
      </trkpt>
      <trkpt lat="44.0981" lon="6.3204">
        <ele>1005.195801</ele>
        <time>2007-04-22T08:42:27Z</time>
      </trkpt>
      <trkpt lat="44.0982" lon="6.32069">
        <ele>1006.637695</ele>
        <time>2007-04-22T08:42:36Z</time>
      </trkpt>
      <trkpt lat="44.09843" lon="6.32107">
        <ele>1008.079834</ele>
        <time>2007-04-22T08:42:52Z</time>
      </trkpt>
      <trkpt lat="44.09864" lon="6.32121">
        <ele>1010.48291</ele>
        <time>2007-04-22T08:43:06Z</time>
      </trkpt>
      <trkpt lat="44.09885" lon="6.32129">
        <ele>1009.041016</ele>
        <time>2007-04-22T08:43:15Z</time>
      </trkpt>
      <trkpt lat="44.09897" lon="6.32111">
        <ele>1009.521729</ele>
        <time>2007-04-22T08:43:21Z</time>
      </trkpt>
      <trkpt lat="44.09894" lon="6.32098">
        <ele>1010.002197</ele>
        <time>2007-04-22T08:43:26Z</time>
      </trkpt>
      <trkpt lat="44.09898" lon="6.32065">
        <ele>1013.366943</ele>
        <time>2007-04-22T08:43:41Z</time>
      </trkpt>
      <trkpt lat="44.09908" lon="6.32034">
        <ele>1014.808838</ele>
        <time>2007-04-22T08:43:55Z</time>
      </trkpt>
      <trkpt lat="44.099" lon="6.31993">
        <ele>1017.212158</ele>
        <time>2007-04-22T08:44:10Z</time>
      </trkpt>
      <trkpt lat="44.09926" lon="6.31971">
        <ele>1018.17334</ele>
        <time>2007-04-22T08:44:24Z</time>
      </trkpt>
      <trkpt lat="44.09938" lon="6.31931">
        <ele>1020.576904</ele>
        <time>2007-04-22T08:44:38Z</time>
      </trkpt>
      <trkpt lat="44.09962" lon="6.3191">
        <ele>1022.499512</ele>
        <time>2007-04-22T08:44:50Z</time>
      </trkpt>
      <trkpt lat="44.09965" lon="6.31901">
        <ele>1022.499512</ele>
        <time>2007-04-22T08:44:54Z</time>
      </trkpt>
      <trkpt lat="44.09996" lon="6.31873">
        <ele>1023.941406</ele>
        <time>2007-04-22T08:45:12Z</time>
      </trkpt>
      <trkpt lat="44.10017" lon="6.31829">
        <ele>1024.902832</ele>
        <time>2007-04-22T08:45:26Z</time>
      </trkpt>
      <trkpt lat="44.10028" lon="6.31768">
        <ele>1024.422119</ele>
        <time>2007-04-22T08:45:39Z</time>
      </trkpt>
      <trkpt lat="44.10034" lon="6.31742">
        <ele>1023.460938</ele>
        <time>2007-04-22T08:45:44Z</time>
      </trkpt>
      <trkpt lat="44.10043" lon="6.31714">
        <ele>1022.980225</ele>
        <time>2007-04-22T08:45:49Z</time>
      </trkpt>
      <trkpt lat="44.10058" lon="6.31694">
        <ele>1022.980225</ele>
        <time>2007-04-22T08:45:54Z</time>
      </trkpt>
      <trkpt lat="44.10085" lon="6.31717">
        <ele>1024.422119</ele>
        <time>2007-04-22T08:46:04Z</time>
      </trkpt>
      <trkpt lat="44.101" lon="6.31749">
        <ele>1025.864014</ele>
        <time>2007-04-22T08:46:14Z</time>
      </trkpt>
      <trkpt lat="44.10129" lon="6.31801">
        <ele>1027.306152</ele>
        <time>2007-04-22T08:46:31Z</time>
      </trkpt>
      <trkpt lat="44.10138" lon="6.31812">
        <ele>1026.825439</ele>
        <time>2007-04-22T08:46:35Z</time>
      </trkpt>
      <trkpt lat="44.10156" lon="6.31826">
        <ele>1025.383301</ele>
        <time>2007-04-22T08:46:39Z</time>
      </trkpt>
      <trkpt lat="44.10175" lon="6.31834">
        <ele>1023.941406</ele>
        <time>2007-04-22T08:46:42Z</time>
      </trkpt>
      <trkpt lat="44.10202" lon="6.31843">
        <ele>1022.499512</ele>
        <time>2007-04-22T08:46:46Z</time>
      </trkpt>
      <trkpt lat="44.10225" lon="6.3183">
        <ele>1022.018799</ele>
        <time>2007-04-22T08:46:54Z</time>
      </trkpt>
      <trkpt lat="44.10224" lon="6.31822">
        <ele>1022.499512</ele>
        <time>2007-04-22T08:46:56Z</time>
      </trkpt>
      <trkpt lat="44.10221" lon="6.31774">
        <ele>1025.864014</ele>
        <time>2007-04-22T08:47:12Z</time>
      </trkpt>
      <trkpt lat="44.10219" lon="6.31749">
        <ele>1028.267334</ele>
        <time>2007-04-22T08:47:22Z</time>
      </trkpt>
      <trkpt lat="44.1023" lon="6.31738">
        <ele>1029.709229</ele>
        <time>2007-04-22T08:47:30Z</time>
      </trkpt>
      <trkpt lat="44.10256" lon="6.31722">
        <ele>1032.593262</ele>
        <time>2007-04-22T08:47:45Z</time>
      </trkpt>
      <trkpt lat="44.10279" lon="6.31711">
        <ele>1035.477051</ele>
        <time>2007-04-22T08:47:59Z</time>
      </trkpt>
      <trkpt lat="44.10302" lon="6.31737">
        <ele>1035.957764</ele>
        <time>2007-04-22T08:48:14Z</time>
      </trkpt>
      <trkpt lat="44.10323" lon="6.31794">
        <ele>1037.880615</ele>
        <time>2007-04-22T08:48:33Z</time>
      </trkpt>
      <trkpt lat="44.10342" lon="6.31824">
        <ele>1041.245117</ele>
        <time>2007-04-22T08:48:49Z</time>
      </trkpt>
      <trkpt lat="44.10369" lon="6.31825">
        <ele>1044.12915</ele>
        <time>2007-04-22T08:49:05Z</time>
      </trkpt>
      <trkpt lat="44.10385" lon="6.31799">
        <ele>1046.051758</ele>
        <time>2007-04-22T08:49:19Z</time>
      </trkpt>
      <trkpt lat="44.10415" lon="6.31789">
        <ele>1048.935547</ele>
        <time>2007-04-22T08:49:37Z</time>
      </trkpt>
      <trkpt lat="44.10438" lon="6.31782">
        <ele>1051.81958</ele>
        <time>2007-04-22T08:49:52Z</time>
      </trkpt>
      <trkpt lat="44.10461" lon="6.31791">
        <ele>1054.223145</ele>
        <time>2007-04-22T08:50:07Z</time>
      </trkpt>
      <trkpt lat="44.10478" lon="6.31806">
        <ele>1055.665039</ele>
        <time>2007-04-22T08:50:19Z</time>
      </trkpt>
      <trkpt lat="44.10502" lon="6.3183">
        <ele>1058.068359</ele>
        <time>2007-04-22T08:50:37Z</time>
      </trkpt>
      <trkpt lat="44.10504" lon="6.31832">
        <ele>1056.626221</ele>
        <time>2007-04-22T08:50:53Z</time>
      </trkpt>
      <trkpt lat="44.10504" lon="6.31832">
        <ele>1058.068359</ele>
        <time>2007-04-22T08:51:49Z</time>
      </trkpt>
      <trkpt lat="44.10509" lon="6.31829">
        <ele>1057.587646</ele>
        <time>2007-04-22T08:52:12Z</time>
      </trkpt>
      <trkpt lat="44.10512" lon="6.31828">
        <ele>1058.068359</ele>
        <time>2007-04-22T08:52:15Z</time>
      </trkpt>
      <trkpt lat="44.10517" lon="6.31833">
        <ele>1058.548828</ele>
        <time>2007-04-22T08:52:20Z</time>
      </trkpt>
      <trkpt lat="44.10532" lon="6.31838">
        <ele>1062.394043</ele>
        <time>2007-04-22T08:52:31Z</time>
      </trkpt>
      <trkpt lat="44.10551" lon="6.31847">
        <ele>1063.355469</ele>
        <time>2007-04-22T08:52:46Z</time>
      </trkpt>
      <trkpt lat="44.10569" lon="6.31847">
        <ele>1065.278076</ele>
        <time>2007-04-22T08:53:00Z</time>
      </trkpt>
      <trkpt lat="44.10574" lon="6.31847">
        <ele>1066.719971</ele>
        <time>2007-04-22T08:53:04Z</time>
      </trkpt>
      <trkpt lat="44.10585" lon="6.31847">
        <ele>1066.719971</ele>
        <time>2007-04-22T08:53:12Z</time>
      </trkpt>
      <trkpt lat="44.10598" lon="6.31841">
        <ele>1068.162109</ele>
        <time>2007-04-22T08:53:21Z</time>
      </trkpt>
      <trkpt lat="44.10617" lon="6.31842">
        <ele>1071.526611</ele>
        <time>2007-04-22T08:53:35Z</time>
      </trkpt>
      <trkpt lat="44.10621" lon="6.3184">
        <ele>1072.488037</ele>
        <time>2007-04-22T08:53:46Z</time>
      </trkpt>
      <trkpt lat="44.10628" lon="6.31835">
        <ele>1073.929932</ele>
        <time>2007-04-22T08:54:05Z</time>
      </trkpt>
      <trkpt lat="44.10645" lon="6.31831">
        <ele>1075.852539</ele>
        <time>2007-04-22T08:54:20Z</time>
      </trkpt>
      <trkpt lat="44.1066" lon="6.31823">
        <ele>1078.736572</ele>
        <time>2007-04-22T08:54:33Z</time>
      </trkpt>
      <trkpt lat="44.10674" lon="6.3181">
        <ele>1080.178467</ele>
        <time>2007-04-22T08:54:46Z</time>
      </trkpt>
      <trkpt lat="44.10684" lon="6.31803">
        <ele>1082.101074</ele>
        <time>2007-04-22T08:55:03Z</time>
      </trkpt>
      <trkpt lat="44.10685" lon="6.31802">
        <ele>1082.101074</ele>
        <time>2007-04-22T08:55:09Z</time>
      </trkpt>
      <trkpt lat="44.10698" lon="6.31805">
        <ele>1084.023926</ele>
        <time>2007-04-22T08:55:23Z</time>
      </trkpt>
      <trkpt lat="44.10702" lon="6.31806">
        <ele>1084.504639</ele>
        <time>2007-04-22T08:55:26Z</time>
      </trkpt>
      <trkpt lat="44.10716" lon="6.31803">
        <ele>1087.388428</ele>
        <time>2007-04-22T08:55:43Z</time>
      </trkpt>
      <trkpt lat="44.10723" lon="6.31798">
        <ele>1088.349854</ele>
        <time>2007-04-22T08:55:59Z</time>
      </trkpt>
      <trkpt lat="44.10726" lon="6.31797">
        <ele>1088.830566</ele>
        <time>2007-04-22T08:56:01Z</time>
      </trkpt>
      <trkpt lat="44.10739" lon="6.31785">
        <ele>1091.233643</ele>
        <time>2007-04-22T08:56:12Z</time>
      </trkpt>
      <trkpt lat="44.10745" lon="6.31781">
        <ele>1092.195068</ele>
        <time>2007-04-22T08:56:23Z</time>
      </trkpt>
      <trkpt lat="44.10749" lon="6.31781">
        <ele>1092.195068</ele>
        <time>2007-04-22T08:56:39Z</time>
      </trkpt>
      <trkpt lat="44.10764" lon="6.31792">
        <ele>1093.636963</ele>
        <time>2007-04-22T08:56:53Z</time>
      </trkpt>
      <trkpt lat="44.10778" lon="6.31807">
        <ele>1095.078857</ele>
        <time>2007-04-22T08:57:06Z</time>
      </trkpt>
      <trkpt lat="44.10791" lon="6.31826">
        <ele>1096.520996</ele>
        <time>2007-04-22T08:57:19Z</time>
      </trkpt>
      <trkpt lat="44.10797" lon="6.31837">
        <ele>1097.001465</ele>
        <time>2007-04-22T08:57:26Z</time>
      </trkpt>
      <trkpt lat="44.108" lon="6.31852">
        <ele>1097.482178</ele>
        <time>2007-04-22T08:57:33Z</time>
      </trkpt>
      <trkpt lat="44.10805" lon="6.31861">
        <ele>1097.962891</ele>
        <time>2007-04-22T08:57:48Z</time>
      </trkpt>
      <trkpt lat="44.10807" lon="6.31872">
        <ele>1098.443359</ele>
        <time>2007-04-22T08:58:36Z</time>
      </trkpt>
      <trkpt lat="44.10813" lon="6.31913">
        <ele>1098.924072</ele>
        <time>2007-04-22T08:58:50Z</time>
      </trkpt>
      <trkpt lat="44.10821" lon="6.31953">
        <ele>1100.846924</ele>
        <time>2007-04-22T08:59:03Z</time>
      </trkpt>
      <trkpt lat="44.10827" lon="6.32004">
        <ele>1102.288818</ele>
        <time>2007-04-22T08:59:19Z</time>
      </trkpt>
      <trkpt lat="44.1083" lon="6.32053">
        <ele>1104.21167</ele>
        <time>2007-04-22T08:59:34Z</time>
      </trkpt>
      <trkpt lat="44.10835" lon="6.32091">
        <ele>1106.134033</ele>
        <time>2007-04-22T08:59:48Z</time>
      </trkpt>
      <trkpt lat="44.10842" lon="6.32102">
        <ele>1105.653564</ele>
        <time>2007-04-22T09:00:00Z</time>
      </trkpt>
      <trkpt lat="44.10848" lon="6.32107">
        <ele>1106.134033</ele>
        <time>2007-04-22T09:00:12Z</time>
      </trkpt>
      <trkpt lat="44.10868" lon="6.32113">
        <ele>1106.614746</ele>
        <time>2007-04-22T09:00:27Z</time>
      </trkpt>
      <trkpt lat="44.10877" lon="6.32108">
        <ele>1107.095459</ele>
        <time>2007-04-22T09:00:39Z</time>
      </trkpt>
      <trkpt lat="44.10889" lon="6.32091">
        <ele>1107.095459</ele>
        <time>2007-04-22T09:02:17Z</time>
      </trkpt>
      <trkpt lat="44.10911" lon="6.32064">
        <ele>1107.095459</ele>
        <time>2007-04-22T09:02:28Z</time>
      </trkpt>
      <trkpt lat="44.1092" lon="6.3206">
        <ele>1106.134033</ele>
        <time>2007-04-22T09:02:31Z</time>
      </trkpt>
      <trkpt lat="44.10948" lon="6.32088">
        <ele>1104.21167</ele>
        <time>2007-04-22T09:02:37Z</time>
      </trkpt>
      <trkpt lat="44.10961" lon="6.32098">
        <ele>1102.769531</ele>
        <time>2007-04-22T09:02:39Z</time>
      </trkpt>
      <trkpt lat="44.10967" lon="6.32102">
        <ele>1102.769531</ele>
        <time>2007-04-22T09:02:40Z</time>
      </trkpt>
      <trkpt lat="44.10993" lon="6.32115">
        <ele>1101.327637</ele>
        <time>2007-04-22T09:02:44Z</time>
      </trkpt>
      <trkpt lat="44.11015" lon="6.32122">
        <ele>1101.80835</ele>
        <time>2007-04-22T09:02:48Z</time>
      </trkpt>
      <trkpt lat="44.11036" lon="6.32117">
        <ele>1101.327637</ele>
        <time>2007-04-22T09:02:52Z</time>
      </trkpt>
      <trkpt lat="44.11064" lon="6.32128">
        <ele>1097.001465</ele>
        <time>2007-04-22T09:02:59Z</time>
      </trkpt>
      <trkpt lat="44.11059" lon="6.32172">
        <ele>1094.117676</ele>
        <time>2007-04-22T09:03:04Z</time>
      </trkpt>
      <trkpt lat="44.11059" lon="6.32183">
        <ele>1093.636963</ele>
        <time>2007-04-22T09:03:05Z</time>
      </trkpt>
      <trkpt lat="44.11058" lon="6.32228">
        <ele>1089.791748</ele>
        <time>2007-04-22T09:03:09Z</time>
      </trkpt>
      <trkpt lat="44.11052" lon="6.32252">
        <ele>1085.946533</ele>
        <time>2007-04-22T09:03:14Z</time>
      </trkpt>
      <trkpt lat="44.11052" lon="6.32254">
        <ele>1085.946533</ele>
        <time>2007-04-22T09:03:15Z</time>
      </trkpt>
      <trkpt lat="44.11053" lon="6.3226">
        <ele>1084.985352</ele>
        <time>2007-04-22T09:03:19Z</time>
      </trkpt>
      <trkpt lat="44.1106" lon="6.3227">
        <ele>1085.46582</ele>
        <time>2007-04-22T09:03:26Z</time>
      </trkpt>
      <trkpt lat="44.11069" lon="6.32274">
        <ele>1085.46582</ele>
        <time>2007-04-22T09:03:41Z</time>
      </trkpt>
      <trkpt lat="44.11077" lon="6.32288">
        <ele>1084.504639</ele>
        <time>2007-04-22T09:03:51Z</time>
      </trkpt>
      <trkpt lat="44.11106" lon="6.3229">
        <ele>1084.023926</ele>
        <time>2007-04-22T09:03:58Z</time>
      </trkpt>
      <trkpt lat="44.11126" lon="6.32302">
        <ele>1085.46582</ele>
        <time>2007-04-22T09:04:05Z</time>
      </trkpt>
      <trkpt lat="44.11132" lon="6.32305">
        <ele>1084.985352</ele>
        <time>2007-04-22T09:04:18Z</time>
      </trkpt>
      <trkpt lat="44.11131" lon="6.32307">
        <ele>1085.46582</ele>
        <time>2007-04-22T09:05:02Z</time>
      </trkpt>
      <trkpt lat="44.11131" lon="6.32306">
        <ele>1085.46582</ele>
        <time>2007-04-22T09:05:21Z</time>
      </trkpt>
      <trkpt lat="44.1113" lon="6.32307">
        <ele>1085.946533</ele>
        <time>2007-04-22T09:06:14Z</time>
      </trkpt>
      <trkpt lat="44.11131" lon="6.32303">
        <ele>1085.46582</ele>
        <time>2007-04-22T09:06:44Z</time>
      </trkpt>
      <trkpt lat="44.11131" lon="6.32302">
        <ele>1085.46582</ele>
        <time>2007-04-22T09:08:39Z</time>
      </trkpt>
      <trkpt lat="44.1114" lon="6.32309">
        <ele>1082.581787</ele>
        <time>2007-04-22T09:09:21Z</time>
      </trkpt>
      <trkpt lat="44.11143" lon="6.32311">
        <ele>1081.139893</ele>
        <time>2007-04-22T09:09:22Z</time>
      </trkpt>
      <trkpt lat="44.11149" lon="6.32324">
        <ele>1079.217041</ele>
        <time>2007-04-22T09:09:25Z</time>
      </trkpt>
      <trkpt lat="44.11152" lon="6.32333">
        <ele>1079.697754</ele>
        <time>2007-04-22T09:09:27Z</time>
      </trkpt>
      <trkpt lat="44.11167" lon="6.32371">
        <ele>1076.333252</ele>
        <time>2007-04-22T09:09:34Z</time>
      </trkpt>
      <trkpt lat="44.11172" lon="6.32369">
        <ele>1075.852539</ele>
        <time>2007-04-22T09:09:44Z</time>
      </trkpt>
      <trkpt lat="44.11173" lon="6.32369">
        <ele>1075.371826</ele>
        <time>2007-04-22T09:09:53Z</time>
      </trkpt>
      <trkpt lat="44.11179" lon="6.32367">
        <ele>1076.813965</ele>
        <time>2007-04-22T09:09:57Z</time>
      </trkpt>
      <trkpt lat="44.11196" lon="6.32376">
        <ele>1076.813965</ele>
        <time>2007-04-22T09:10:06Z</time>
      </trkpt>
      <trkpt lat="44.11221" lon="6.32377">
        <ele>1078.255859</ele>
        <time>2007-04-22T09:10:15Z</time>
      </trkpt>
      <trkpt lat="44.11227" lon="6.32375">
        <ele>1078.255859</ele>
        <time>2007-04-22T09:10:20Z</time>
      </trkpt>
      <trkpt lat="44.11236" lon="6.32376">
        <ele>1078.255859</ele>
        <time>2007-04-22T09:10:24Z</time>
      </trkpt>
      <trkpt lat="44.11259" lon="6.32361">
        <ele>1078.255859</ele>
        <time>2007-04-22T09:10:33Z</time>
      </trkpt>
      <trkpt lat="44.11285" lon="6.32357">
        <ele>1081.139893</ele>
        <time>2007-04-22T09:10:44Z</time>
      </trkpt>
      <trkpt lat="44.11292" lon="6.32345">
        <ele>1080.65918</ele>
        <time>2007-04-22T09:10:49Z</time>
      </trkpt>
      <trkpt lat="44.11313" lon="6.32343">
        <ele>1081.139893</ele>
        <time>2007-04-22T09:10:58Z</time>
      </trkpt>
      <trkpt lat="44.1133" lon="6.32327">
        <ele>1083.062256</ele>
        <time>2007-04-22T09:11:07Z</time>
      </trkpt>
      <trkpt lat="44.11336" lon="6.32328">
        <ele>1084.023926</ele>
        <time>2007-04-22T09:11:11Z</time>
      </trkpt>
      <trkpt lat="44.11342" lon="6.32314">
        <ele>1084.023926</ele>
        <time>2007-04-22T09:11:17Z</time>
      </trkpt>
      <trkpt lat="44.11345" lon="6.32308">
        <ele>1084.023926</ele>
        <time>2007-04-22T09:11:20Z</time>
      </trkpt>
      <trkpt lat="44.11365" lon="6.32307">
        <ele>1087.388428</ele>
        <time>2007-04-22T09:11:34Z</time>
      </trkpt>
      <trkpt lat="44.11371" lon="6.32308">
        <ele>1089.311035</ele>
        <time>2007-04-22T09:11:38Z</time>
      </trkpt>
      <trkpt lat="44.11382" lon="6.32308">
        <ele>1090.272461</ele>
        <time>2007-04-22T09:11:51Z</time>
      </trkpt>
      <trkpt lat="44.11382" lon="6.32308">
        <ele>1090.272461</ele>
        <time>2007-04-22T09:11:54Z</time>
      </trkpt>
      <trkpt lat="44.11376" lon="6.32309">
        <ele>1089.791748</ele>
        <time>2007-04-22T09:12:03Z</time>
      </trkpt>
      <trkpt lat="44.11376" lon="6.32308">
        <ele>1089.311035</ele>
        <time>2007-04-22T09:12:19Z</time>
      </trkpt>
      <trkpt lat="44.11392" lon="6.32307">
        <ele>1085.946533</ele>
        <time>2007-04-22T09:12:27Z</time>
      </trkpt>
      <trkpt lat="44.11395" lon="6.32305">
        <ele>1085.946533</ele>
        <time>2007-04-22T09:12:28Z</time>
      </trkpt>
      <trkpt lat="44.114" lon="6.32305">
        <ele>1086.427246</ele>
        <time>2007-04-22T09:12:35Z</time>
      </trkpt>
      <trkpt lat="44.11403" lon="6.32306">
        <ele>1085.946533</ele>
        <time>2007-04-22T09:12:56Z</time>
      </trkpt>
      <trkpt lat="44.11406" lon="6.32306">
        <ele>1085.46582</ele>
        <time>2007-04-22T09:13:24Z</time>
      </trkpt>
      <trkpt lat="44.11406" lon="6.32306">
        <ele>1085.46582</ele>
        <time>2007-04-22T09:13:52Z</time>
      </trkpt>
      <trkpt lat="44.11406" lon="6.32303">
        <ele>1085.46582</ele>
        <time>2007-04-22T09:14:48Z</time>
      </trkpt>
      <trkpt lat="44.11406" lon="6.32304">
        <ele>1085.46582</ele>
        <time>2007-04-22T09:14:59Z</time>
      </trkpt>
      <trkpt lat="44.11402" lon="6.3232">
        <ele>1083.542969</ele>
        <time>2007-04-22T09:15:04Z</time>
      </trkpt>
      <trkpt lat="44.11398" lon="6.32339">
        <ele>1079.217041</ele>
        <time>2007-04-22T09:15:08Z</time>
      </trkpt>
      <trkpt lat="44.11394" lon="6.32352">
        <ele>1075.852539</ele>
        <time>2007-04-22T09:15:13Z</time>
      </trkpt>
      <trkpt lat="44.11393" lon="6.32358">
        <ele>1075.852539</ele>
        <time>2007-04-22T09:15:19Z</time>
      </trkpt>
      <trkpt lat="44.11401" lon="6.32372">
        <ele>1072.007324</ele>
        <time>2007-04-22T09:15:24Z</time>
      </trkpt>
      <trkpt lat="44.11411" lon="6.32386">
        <ele>1070.56543</ele>
        <time>2007-04-22T09:15:30Z</time>
      </trkpt>
      <trkpt lat="44.11408" lon="6.32381">
        <ele>1071.046143</ele>
        <time>2007-04-22T09:15:41Z</time>
      </trkpt>
      <trkpt lat="44.11409" lon="6.32382">
        <ele>1071.046143</ele>
        <time>2007-04-22T09:15:46Z</time>
      </trkpt>
      <trkpt lat="44.1141" lon="6.32384">
        <ele>1071.526611</ele>
        <time>2007-04-22T09:15:59Z</time>
      </trkpt>
      <trkpt lat="44.11417" lon="6.32394">
        <ele>1067.200684</ele>
        <time>2007-04-22T09:16:06Z</time>
      </trkpt>
      <trkpt lat="44.11422" lon="6.32401">
        <ele>1063.835938</ele>
        <time>2007-04-22T09:16:08Z</time>
      </trkpt>
      <trkpt lat="44.11427" lon="6.32407">
        <ele>1063.355469</ele>
        <time>2007-04-22T09:16:10Z</time>
      </trkpt>
      <trkpt lat="44.11441" lon="6.32417">
        <ele>1062.874756</ele>
        <time>2007-04-22T09:16:19Z</time>
      </trkpt>
      <trkpt lat="44.1146" lon="6.32431">
        <ele>1064.31665</ele>
        <time>2007-04-22T09:16:33Z</time>
      </trkpt>
      <trkpt lat="44.11482" lon="6.3244">
        <ele>1061.913574</ele>
        <time>2007-04-22T09:16:44Z</time>
      </trkpt>
      <trkpt lat="44.11482" lon="6.32443">
        <ele>1061.913574</ele>
        <time>2007-04-22T09:17:01Z</time>
      </trkpt>
      <trkpt lat="44.11482" lon="6.3245">
        <ele>1060.471436</ele>
        <time>2007-04-22T09:17:05Z</time>
      </trkpt>
      <trkpt lat="44.11484" lon="6.32455">
        <ele>1058.068359</ele>
        <time>2007-04-22T09:17:19Z</time>
      </trkpt>
      <trkpt lat="44.11484" lon="6.32454">
        <ele>1058.068359</ele>
        <time>2007-04-22T09:17:20Z</time>
      </trkpt>
      <trkpt lat="44.11491" lon="6.32449">
        <ele>1055.184326</ele>
        <time>2007-04-22T09:17:25Z</time>
      </trkpt>
      <trkpt lat="44.11496" lon="6.32451">
        <ele>1051.81958</ele>
        <time>2007-04-22T09:17:29Z</time>
      </trkpt>
      <trkpt lat="44.115" lon="6.32449">
        <ele>1048.935547</ele>
        <time>2007-04-22T09:17:32Z</time>
      </trkpt>
      <trkpt lat="44.11499" lon="6.32448">
        <ele>1048.454834</ele>
        <time>2007-04-22T09:17:34Z</time>
      </trkpt>
      <trkpt lat="44.115" lon="6.32449">
        <ele>1047.974365</ele>
        <time>2007-04-22T09:17:37Z</time>
      </trkpt>
      <trkpt lat="44.11506" lon="6.32459">
        <ele>1047.493652</ele>
        <time>2007-04-22T09:17:43Z</time>
      </trkpt>
      <trkpt lat="44.11507" lon="6.32462">
        <ele>1047.493652</ele>
        <time>2007-04-22T09:17:45Z</time>
      </trkpt>
      <trkpt lat="44.11511" lon="6.32464">
        <ele>1047.012939</ele>
        <time>2007-04-22T09:17:57Z</time>
      </trkpt>
      <trkpt lat="44.11512" lon="6.32463">
        <ele>1046.532471</ele>
        <time>2007-04-22T09:18:21Z</time>
      </trkpt>
      <trkpt lat="44.11513" lon="6.32463">
        <ele>1046.532471</ele>
        <time>2007-04-22T09:18:28Z</time>
      </trkpt>
      <trkpt lat="44.1152" lon="6.32457">
        <ele>1042.687256</ele>
        <time>2007-04-22T09:18:31Z</time>
      </trkpt>
      <trkpt lat="44.11525" lon="6.32453">
        <ele>1041.72583</ele>
        <time>2007-04-22T09:18:33Z</time>
      </trkpt>
      <trkpt lat="44.11526" lon="6.32449">
        <ele>1040.283936</ele>
        <time>2007-04-22T09:18:41Z</time>
      </trkpt>
      <trkpt lat="44.11531" lon="6.32446">
        <ele>1037.880615</ele>
        <time>2007-04-22T09:18:46Z</time>
      </trkpt>
      <trkpt lat="44.11544" lon="6.32438">
        <ele>1036.919189</ele>
        <time>2007-04-22T09:18:56Z</time>
      </trkpt>
      <trkpt lat="44.11562" lon="6.32433">
        <ele>1039.803223</ele>
        <time>2007-04-22T09:19:05Z</time>
      </trkpt>
      <trkpt lat="44.1157" lon="6.32424">
        <ele>1035.957764</ele>
        <time>2007-04-22T09:19:23Z</time>
      </trkpt>
      <trkpt lat="44.11575" lon="6.32408">
        <ele>1033.07373</ele>
        <time>2007-04-22T09:19:27Z</time>
      </trkpt>
      <trkpt lat="44.11582" lon="6.32396">
        <ele>1030.670654</ele>
        <time>2007-04-22T09:19:32Z</time>
      </trkpt>
      <trkpt lat="44.11591" lon="6.32389">
        <ele>1027.786621</ele>
        <time>2007-04-22T09:19:35Z</time>
      </trkpt>
      <trkpt lat="44.11592" lon="6.3239">
        <ele>1027.786621</ele>
        <time>2007-04-22T09:19:44Z</time>
      </trkpt>
      <trkpt lat="44.11594" lon="6.32393">
        <ele>1027.306152</ele>
        <time>2007-04-22T09:20:30Z</time>
      </trkpt>
      <trkpt lat="44.11598" lon="6.32408">
        <ele>1025.864014</ele>
        <time>2007-04-22T09:20:34Z</time>
      </trkpt>
      <trkpt lat="44.11612" lon="6.32421">
        <ele>1026.344727</ele>
        <time>2007-04-22T09:20:38Z</time>
      </trkpt>
      <trkpt lat="44.11641" lon="6.32421">
        <ele>1027.306152</ele>
        <time>2007-04-22T09:20:47Z</time>
      </trkpt>
      <trkpt lat="44.11656" lon="6.32426">
        <ele>1028.748047</ele>
        <time>2007-04-22T09:20:56Z</time>
      </trkpt>
      <trkpt lat="44.11658" lon="6.32426">
        <ele>1028.267334</ele>
        <time>2007-04-22T09:21:07Z</time>
      </trkpt>
      <trkpt lat="44.11662" lon="6.3242">
        <ele>1027.306152</ele>
        <time>2007-04-22T09:21:09Z</time>
      </trkpt>
      <trkpt lat="44.11665" lon="6.32405">
        <ele>1022.499512</ele>
        <time>2007-04-22T09:21:12Z</time>
      </trkpt>
      <trkpt lat="44.11666" lon="6.32395">
        <ele>1021.538086</ele>
        <time>2007-04-22T09:21:14Z</time>
      </trkpt>
      <trkpt lat="44.11667" lon="6.32383">
        <ele>1019.615479</ele>
        <time>2007-04-22T09:21:17Z</time>
      </trkpt>
      <trkpt lat="44.11665" lon="6.32369">
        <ele>1018.654053</ele>
        <time>2007-04-22T09:21:19Z</time>
      </trkpt>
      <trkpt lat="44.11668" lon="6.32356">
        <ele>1019.134766</ele>
        <time>2007-04-22T09:21:23Z</time>
      </trkpt>
      <trkpt lat="44.11693" lon="6.32345">
        <ele>1018.654053</ele>
        <time>2007-04-22T09:21:31Z</time>
      </trkpt>
      <trkpt lat="44.1171" lon="6.32335">
        <ele>1017.212158</ele>
        <time>2007-04-22T09:21:35Z</time>
      </trkpt>
      <trkpt lat="44.11714" lon="6.32334">
        <ele>1017.212158</ele>
        <time>2007-04-22T09:21:36Z</time>
      </trkpt>
      <trkpt lat="44.11757" lon="6.32323">
        <ele>1013.847412</ele>
        <time>2007-04-22T09:21:45Z</time>
      </trkpt>
      <trkpt lat="44.11762" lon="6.32324">
        <ele>1013.847412</ele>
        <time>2007-04-22T09:21:46Z</time>
      </trkpt>
      <trkpt lat="44.11787" lon="6.32313">
        <ele>1013.366943</ele>
        <time>2007-04-22T09:21:53Z</time>
      </trkpt>
      <trkpt lat="44.11787" lon="6.3231">
        <ele>1013.366943</ele>
        <time>2007-04-22T09:22:04Z</time>
      </trkpt>
      <trkpt lat="44.11786" lon="6.32311">
        <ele>1012.88623</ele>
        <time>2007-04-22T09:22:34Z</time>
      </trkpt>
      <trkpt lat="44.11785" lon="6.3231">
        <ele>1012.88623</ele>
        <time>2007-04-22T09:23:03Z</time>
      </trkpt>
      <trkpt lat="44.11781" lon="6.32307">
        <ele>1013.366943</ele>
        <time>2007-04-22T09:23:07Z</time>
      </trkpt>
      <trkpt lat="44.11768" lon="6.32304">
        <ele>1010.963623</ele>
        <time>2007-04-22T09:23:12Z</time>
      </trkpt>
      <trkpt lat="44.11759" lon="6.323">
        <ele>1010.002197</ele>
        <time>2007-04-22T09:23:15Z</time>
      </trkpt>
      <trkpt lat="44.11756" lon="6.32293">
        <ele>1009.521729</ele>
        <time>2007-04-22T09:23:20Z</time>
      </trkpt>
      <trkpt lat="44.11762" lon="6.32285">
        <ele>1007.118408</ele>
        <time>2007-04-22T09:23:22Z</time>
      </trkpt>
      <trkpt lat="44.11786" lon="6.32278">
        <ele>1005.195801</ele>
        <time>2007-04-22T09:23:30Z</time>
      </trkpt>
      <trkpt lat="44.11801" lon="6.32284">
        <ele>1005.195801</ele>
        <time>2007-04-22T09:23:42Z</time>
      </trkpt>
      <trkpt lat="44.11817" lon="6.3229">
        <ele>1005.676514</ele>
        <time>2007-04-22T09:24:49Z</time>
      </trkpt>
      <trkpt lat="44.11831" lon="6.32266">
        <ele>1005.195801</ele>
        <time>2007-04-22T09:24:58Z</time>
      </trkpt>
      <trkpt lat="44.11833" lon="6.32257">
        <ele>1005.676514</ele>
        <time>2007-04-22T09:25:01Z</time>
      </trkpt>
      <trkpt lat="44.11843" lon="6.32246">
        <ele>1004.234619</ele>
        <time>2007-04-22T09:25:04Z</time>
      </trkpt>
      <trkpt lat="44.11846" lon="6.32245">
        <ele>1004.234619</ele>
        <time>2007-04-22T09:25:05Z</time>
      </trkpt>
      <trkpt lat="44.11858" lon="6.32223">
        <ele>1004.234619</ele>
        <time>2007-04-22T09:25:11Z</time>
      </trkpt>
      <trkpt lat="44.11869" lon="6.32214">
        <ele>1006.156982</ele>
        <time>2007-04-22T09:25:16Z</time>
      </trkpt>
      <trkpt lat="44.11878" lon="6.32209">
        <ele>1009.521729</ele>
        <time>2007-04-22T09:25:20Z</time>
      </trkpt>
      <trkpt lat="44.1188" lon="6.32208">
        <ele>1009.521729</ele>
        <time>2007-04-22T09:25:21Z</time>
      </trkpt>
      <trkpt lat="44.11891" lon="6.322">
        <ele>1010.48291</ele>
        <time>2007-04-22T09:25:27Z</time>
      </trkpt>
      <trkpt lat="44.11885" lon="6.3218">
        <ele>1011.444336</ele>
        <time>2007-04-22T09:25:36Z</time>
      </trkpt>
      <trkpt lat="44.11876" lon="6.32168">
        <ele>1011.444336</ele>
        <time>2007-04-22T09:25:42Z</time>
      </trkpt>
      <trkpt lat="44.11871" lon="6.32151">
        <ele>1010.48291</ele>
        <time>2007-04-22T09:25:46Z</time>
      </trkpt>
      <trkpt lat="44.11866" lon="6.32134">
        <ele>1011.444336</ele>
        <time>2007-04-22T09:25:59Z</time>
      </trkpt>
      <trkpt lat="44.11865" lon="6.32134">
        <ele>1011.444336</ele>
        <time>2007-04-22T09:26:30Z</time>
      </trkpt>
      <trkpt lat="44.11861" lon="6.32114">
        <ele>1012.88623</ele>
        <time>2007-04-22T09:26:43Z</time>
      </trkpt>
      <trkpt lat="44.11861" lon="6.32112">
        <ele>1012.405518</ele>
        <time>2007-04-22T09:26:58Z</time>
      </trkpt>
      <trkpt lat="44.11861" lon="6.32113">
        <ele>1012.88623</ele>
        <time>2007-04-22T09:27:32Z</time>
      </trkpt>
      <trkpt lat="44.11862" lon="6.32117">
        <ele>1012.88623</ele>
        <time>2007-04-22T09:27:40Z</time>
      </trkpt>
      <trkpt lat="44.11861" lon="6.32123">
        <ele>1012.405518</ele>
        <time>2007-04-22T09:27:55Z</time>
      </trkpt>
      <trkpt lat="44.11872" lon="6.32135">
        <ele>1009.521729</ele>
        <time>2007-04-22T09:28:01Z</time>
      </trkpt>
      <trkpt lat="44.11886" lon="6.32138">
        <ele>1007.118408</ele>
        <time>2007-04-22T09:28:10Z</time>
      </trkpt>
      <trkpt lat="44.11893" lon="6.32138">
        <ele>1003.753662</ele>
        <time>2007-04-22T09:28:15Z</time>
      </trkpt>
      <trkpt lat="44.11899" lon="6.32136">
        <ele>1000.38916</ele>
        <time>2007-04-22T09:28:17Z</time>
      </trkpt>
      <trkpt lat="44.11907" lon="6.32131">
        <ele>997.505127</ele>
        <time>2007-04-22T09:28:25Z</time>
      </trkpt>
      <trkpt lat="44.11914" lon="6.32131">
        <ele>997.024414</ele>
        <time>2007-04-22T09:28:45Z</time>
      </trkpt>
      <trkpt lat="44.11915" lon="6.32131">
        <ele>997.024414</ele>
        <time>2007-04-22T09:29:01Z</time>
      </trkpt>
      <trkpt lat="44.11915" lon="6.32131">
        <ele>997.024414</ele>
        <time>2007-04-22T09:29:24Z</time>
      </trkpt>
      <trkpt lat="44.1192" lon="6.32133">
        <ele>996.063232</ele>
        <time>2007-04-22T09:29:27Z</time>
      </trkpt>
      <trkpt lat="44.11925" lon="6.3213">
        <ele>994.140625</ele>
        <time>2007-04-22T09:29:31Z</time>
      </trkpt>
      <trkpt lat="44.11927" lon="6.32126">
        <ele>992.69873</ele>
        <time>2007-04-22T09:29:34Z</time>
      </trkpt>
      <trkpt lat="44.11932" lon="6.32119">
        <ele>991.256592</ele>
        <time>2007-04-22T09:29:37Z</time>
      </trkpt>
      <trkpt lat="44.11943" lon="6.32108">
        <ele>986.449951</ele>
        <time>2007-04-22T09:29:41Z</time>
      </trkpt>
      <trkpt lat="44.11945" lon="6.32106">
        <ele>985.969238</ele>
        <time>2007-04-22T09:29:42Z</time>
      </trkpt>
      <trkpt lat="44.11947" lon="6.32102">
        <ele>984.527344</ele>
        <time>2007-04-22T09:29:44Z</time>
      </trkpt>
      <trkpt lat="44.1195" lon="6.32097">
        <ele>980.682129</ele>
        <time>2007-04-22T09:29:46Z</time>
      </trkpt>
      <trkpt lat="44.11955" lon="6.32089">
        <ele>976.356201</ele>
        <time>2007-04-22T09:29:50Z</time>
      </trkpt>
      <trkpt lat="44.11958" lon="6.32087">
        <ele>976.356201</ele>
        <time>2007-04-22T09:29:51Z</time>
      </trkpt>
      <trkpt lat="44.11975" lon="6.32094">
        <ele>976.356201</ele>
        <time>2007-04-22T09:29:58Z</time>
      </trkpt>
      <trkpt lat="44.11984" lon="6.32101">
        <ele>976.356201</ele>
        <time>2007-04-22T09:30:05Z</time>
      </trkpt>
      <trkpt lat="44.11991" lon="6.32107">
        <ele>976.356201</ele>
        <time>2007-04-22T09:30:09Z</time>
      </trkpt>
      <trkpt lat="44.11998" lon="6.32108">
        <ele>976.356201</ele>
        <time>2007-04-22T09:30:13Z</time>
      </trkpt>
      <trkpt lat="44.12008" lon="6.32108">
        <ele>979.23999</ele>
        <time>2007-04-22T09:30:24Z</time>
      </trkpt>
      <trkpt lat="44.12012" lon="6.32107">
        <ele>979.720703</ele>
        <time>2007-04-22T09:30:37Z</time>
      </trkpt>
      <trkpt lat="44.12023" lon="6.32109">
        <ele>978.278809</ele>
        <time>2007-04-22T09:30:43Z</time>
      </trkpt>
      <trkpt lat="44.1203" lon="6.32123">
        <ele>976.836914</ele>
        <time>2007-04-22T09:30:46Z</time>
      </trkpt>
      <trkpt lat="44.12038" lon="6.32141">
        <ele>974.433594</ele>
        <time>2007-04-22T09:30:51Z</time>
      </trkpt>
      <trkpt lat="44.12039" lon="6.32143">
        <ele>972.991699</ele>
        <time>2007-04-22T09:30:52Z</time>
      </trkpt>
      <trkpt lat="44.12048" lon="6.32148">
        <ele>969.626953</ele>
        <time>2007-04-22T09:30:58Z</time>
      </trkpt>
      <trkpt lat="44.12052" lon="6.3215">
        <ele>968.184814</ele>
        <time>2007-04-22T09:31:00Z</time>
      </trkpt>
      <trkpt lat="44.12067" lon="6.32163">
        <ele>964.3396</ele>
        <time>2007-04-22T09:31:05Z</time>
      </trkpt>
      <trkpt lat="44.1209" lon="6.32172">
        <ele>962.416992</ele>
        <time>2007-04-22T09:31:12Z</time>
      </trkpt>
      <trkpt lat="44.12097" lon="6.32165">
        <ele>962.897705</ele>
        <time>2007-04-22T09:31:19Z</time>
      </trkpt>
      <trkpt lat="44.12111" lon="6.32168">
        <ele>963.858887</ele>
        <time>2007-04-22T09:31:26Z</time>
      </trkpt>
      <trkpt lat="44.12134" lon="6.32171">
        <ele>963.378418</ele>
        <time>2007-04-22T09:31:36Z</time>
      </trkpt>
      <trkpt lat="44.12141" lon="6.32171">
        <ele>963.378418</ele>
        <time>2007-04-22T09:31:40Z</time>
      </trkpt>
      <trkpt lat="44.12151" lon="6.32168">
        <ele>962.416992</ele>
        <time>2007-04-22T09:31:49Z</time>
      </trkpt>
      <trkpt lat="44.12152" lon="6.32142">
        <ele>960.975098</ele>
        <time>2007-04-22T09:31:59Z</time>
      </trkpt>
      <trkpt lat="44.1214" lon="6.32109">
        <ele>959.05249</ele>
        <time>2007-04-22T09:32:04Z</time>
      </trkpt>
      <trkpt lat="44.12125" lon="6.32083">
        <ele>957.610596</ele>
        <time>2007-04-22T09:32:08Z</time>
      </trkpt>
      <trkpt lat="44.12116" lon="6.3207">
        <ele>955.687744</ele>
        <time>2007-04-22T09:32:10Z</time>
      </trkpt>
      <trkpt lat="44.12109" lon="6.32057">
        <ele>955.207031</ele>
        <time>2007-04-22T09:32:12Z</time>
      </trkpt>
      <trkpt lat="44.12104" lon="6.32043">
        <ele>953.765137</ele>
        <time>2007-04-22T09:32:14Z</time>
      </trkpt>
      <trkpt lat="44.12099" lon="6.32031">
        <ele>953.284424</ele>
        <time>2007-04-22T09:32:16Z</time>
      </trkpt>
      <trkpt lat="44.12084" lon="6.31976">
        <ele>954.24585</ele>
        <time>2007-04-22T09:32:27Z</time>
      </trkpt>
      <trkpt lat="44.12077" lon="6.31959">
        <ele>956.168457</ele>
        <time>2007-04-22T09:32:32Z</time>
      </trkpt>
      <trkpt lat="44.12063" lon="6.31933">
        <ele>957.129883</ele>
        <time>2007-04-22T09:32:42Z</time>
      </trkpt>
      <trkpt lat="44.12059" lon="6.3193">
        <ele>956.168457</ele>
        <time>2007-04-22T09:32:43Z</time>
      </trkpt>
      <trkpt lat="44.12044" lon="6.3192">
        <ele>953.765137</ele>
        <time>2007-04-22T09:32:46Z</time>
      </trkpt>
      <trkpt lat="44.12035" lon="6.31917">
        <ele>952.803711</ele>
        <time>2007-04-22T09:32:48Z</time>
      </trkpt>
      <trkpt lat="44.12024" lon="6.31912">
        <ele>949.919922</ele>
        <time>2007-04-22T09:32:51Z</time>
      </trkpt>
      <trkpt lat="44.12022" lon="6.31908">
        <ele>950.400635</ele>
        <time>2007-04-22T09:32:52Z</time>
      </trkpt>
      <trkpt lat="44.12001" lon="6.31868">
        <ele>951.361816</ele>
        <time>2007-04-22T09:33:05Z</time>
      </trkpt>
      <trkpt lat="44.1199" lon="6.3186">
        <ele>951.361816</ele>
        <time>2007-04-22T09:33:09Z</time>
      </trkpt>
      <trkpt lat="44.11979" lon="6.31838">
        <ele>950.881104</ele>
        <time>2007-04-22T09:33:15Z</time>
      </trkpt>
      <trkpt lat="44.11974" lon="6.31811">
        <ele>954.726318</ele>
        <time>2007-04-22T09:33:25Z</time>
      </trkpt>
      <trkpt lat="44.11971" lon="6.31788">
        <ele>957.610596</ele>
        <time>2007-04-22T09:33:34Z</time>
      </trkpt>
      <trkpt lat="44.11966" lon="6.31768">
        <ele>959.05249</ele>
        <time>2007-04-22T09:33:48Z</time>
      </trkpt>
      <trkpt lat="44.11966" lon="6.31769">
        <ele>959.05249</ele>
        <time>2007-04-22T09:34:15Z</time>
      </trkpt>
      <trkpt lat="44.11962" lon="6.31765">
        <ele>959.05249</ele>
        <time>2007-04-22T09:35:11Z</time>
      </trkpt>
      <trkpt lat="44.11942" lon="6.31751">
        <ele>955.207031</ele>
        <time>2007-04-22T09:35:16Z</time>
      </trkpt>
      <trkpt lat="44.11934" lon="6.31749">
        <ele>953.284424</ele>
        <time>2007-04-22T09:35:19Z</time>
      </trkpt>
      <trkpt lat="44.11922" lon="6.31745">
        <ele>949.919922</ele>
        <time>2007-04-22T09:35:26Z</time>
      </trkpt>
      <trkpt lat="44.11912" lon="6.31748">
        <ele>947.035889</ele>
        <time>2007-04-22T09:35:30Z</time>
      </trkpt>
      <trkpt lat="44.11909" lon="6.31747">
        <ele>947.035889</ele>
        <time>2007-04-22T09:35:31Z</time>
      </trkpt>
      <trkpt lat="44.1189" lon="6.31736">
        <ele>944.632568</ele>
        <time>2007-04-22T09:35:39Z</time>
      </trkpt>
      <trkpt lat="44.1189" lon="6.31734">
        <ele>944.632568</ele>
        <time>2007-04-22T09:35:41Z</time>
      </trkpt>
      <trkpt lat="44.11888" lon="6.31725">
        <ele>944.1521</ele>
        <time>2007-04-22T09:35:45Z</time>
      </trkpt>
      <trkpt lat="44.11889" lon="6.3171">
        <ele>945.593994</ele>
        <time>2007-04-22T09:35:52Z</time>
      </trkpt>
      <trkpt lat="44.11889" lon="6.31691">
        <ele>947.516602</ele>
        <time>2007-04-22T09:36:00Z</time>
      </trkpt>
      <trkpt lat="44.11888" lon="6.31683">
        <ele>949.439209</ele>
        <time>2007-04-22T09:36:07Z</time>
      </trkpt>
      <trkpt lat="44.11886" lon="6.31668">
        <ele>951.361816</ele>
        <time>2007-04-22T09:36:22Z</time>
      </trkpt>
      <trkpt lat="44.11877" lon="6.31658">
        <ele>953.765137</ele>
        <time>2007-04-22T09:36:32Z</time>
      </trkpt>
      <trkpt lat="44.11868" lon="6.31648">
        <ele>955.687744</ele>
        <time>2007-04-22T09:36:44Z</time>
      </trkpt>
      <trkpt lat="44.11866" lon="6.31637">
        <ele>958.091309</ele>
        <time>2007-04-22T09:36:58Z</time>
      </trkpt>
      <trkpt lat="44.11867" lon="6.31631">
        <ele>960.013672</ele>
        <time>2007-04-22T09:37:13Z</time>
      </trkpt>
      <trkpt lat="44.11866" lon="6.3163">
        <ele>960.013672</ele>
        <time>2007-04-22T09:37:39Z</time>
      </trkpt>
      <trkpt lat="44.1187" lon="6.31625">
        <ele>960.013672</ele>
        <time>2007-04-22T09:37:43Z</time>
      </trkpt>
      <trkpt lat="44.11874" lon="6.31604">
        <ele>962.897705</ele>
        <time>2007-04-22T09:37:58Z</time>
      </trkpt>
      <trkpt lat="44.11863" lon="6.31579">
        <ele>966.262207</ele>
        <time>2007-04-22T09:38:12Z</time>
      </trkpt>
      <trkpt lat="44.11834" lon="6.31568">
        <ele>964.3396</ele>
        <time>2007-04-22T09:38:24Z</time>
      </trkpt>
      <trkpt lat="44.11829" lon="6.31566">
        <ele>963.858887</ele>
        <time>2007-04-22T09:38:25Z</time>
      </trkpt>
      <trkpt lat="44.11807" lon="6.31548">
        <ele>961.455811</ele>
        <time>2007-04-22T09:38:33Z</time>
      </trkpt>
      <trkpt lat="44.11808" lon="6.31527">
        <ele>962.416992</ele>
        <time>2007-04-22T09:38:40Z</time>
      </trkpt>
      <trkpt lat="44.11812" lon="6.31492">
        <ele>963.378418</ele>
        <time>2007-04-22T09:38:50Z</time>
      </trkpt>
      <trkpt lat="44.11804" lon="6.31473">
        <ele>963.378418</ele>
        <time>2007-04-22T09:38:56Z</time>
      </trkpt>
      <trkpt lat="44.11778" lon="6.31454">
        <ele>960.975098</ele>
        <time>2007-04-22T09:39:02Z</time>
      </trkpt>
      <trkpt lat="44.11765" lon="6.3144">
        <ele>959.05249</ele>
        <time>2007-04-22T09:39:05Z</time>
      </trkpt>
      <trkpt lat="44.11761" lon="6.31421">
        <ele>959.05249</ele>
        <time>2007-04-22T09:39:09Z</time>
      </trkpt>
      <trkpt lat="44.11739" lon="6.31392">
        <ele>959.533203</ele>
        <time>2007-04-22T09:39:22Z</time>
      </trkpt>
      <trkpt lat="44.11735" lon="6.31389">
        <ele>959.533203</ele>
        <time>2007-04-22T09:39:37Z</time>
      </trkpt>
      <trkpt lat="44.11735" lon="6.31389">
        <ele>959.533203</ele>
        <time>2007-04-22T09:40:30Z</time>
      </trkpt>
      <trkpt lat="44.11736" lon="6.31389">
        <ele>959.533203</ele>
        <time>2007-04-22T09:40:47Z</time>
      </trkpt>
      <trkpt lat="44.11736" lon="6.3139">
        <ele>956.168457</ele>
        <time>2007-04-22T09:42:21Z</time>
      </trkpt>
      <trkpt lat="44.11736" lon="6.3139">
        <ele>960.013672</ele>
        <time>2007-04-22T09:42:23Z</time>
      </trkpt>
      <trkpt lat="44.11735" lon="6.3139">
        <ele>960.013672</ele>
        <time>2007-04-22T09:43:15Z</time>
      </trkpt>
      <trkpt lat="44.11734" lon="6.31388">
        <ele>959.533203</ele>
        <time>2007-04-22T09:43:43Z</time>
      </trkpt>
      <trkpt lat="44.11737" lon="6.31381">
        <ele>959.533203</ele>
        <time>2007-04-22T09:43:47Z</time>
      </trkpt>
      <trkpt lat="44.11745" lon="6.31361">
        <ele>957.129883</ele>
        <time>2007-04-22T09:43:52Z</time>
      </trkpt>
      <trkpt lat="44.11748" lon="6.31355">
        <ele>956.64917</ele>
        <time>2007-04-22T09:43:53Z</time>
      </trkpt>
      <trkpt lat="44.11771" lon="6.31299">
        <ele>959.05249</ele>
        <time>2007-04-22T09:44:08Z</time>
      </trkpt>
      <trkpt lat="44.11784" lon="6.3125">
        <ele>961.455811</ele>
        <time>2007-04-22T09:44:23Z</time>
      </trkpt>
      <trkpt lat="44.11817" lon="6.31248">
        <ele>961.936523</ele>
        <time>2007-04-22T09:44:35Z</time>
      </trkpt>
      <trkpt lat="44.11824" lon="6.31252">
        <ele>962.416992</ele>
        <time>2007-04-22T09:44:38Z</time>
      </trkpt>
      <trkpt lat="44.11826" lon="6.31246">
        <ele>962.897705</ele>
        <time>2007-04-22T09:44:43Z</time>
      </trkpt>
      <trkpt lat="44.11814" lon="6.31215">
        <ele>966.262207</ele>
        <time>2007-04-22T09:45:01Z</time>
      </trkpt>
      <trkpt lat="44.11806" lon="6.31187">
        <ele>969.14624</ele>
        <time>2007-04-22T09:45:18Z</time>
      </trkpt>
      <trkpt lat="44.11807" lon="6.31154">
        <ele>971.549316</ele>
        <time>2007-04-22T09:45:34Z</time>
      </trkpt>
      <trkpt lat="44.11804" lon="6.3115">
        <ele>971.549316</ele>
        <time>2007-04-22T09:45:37Z</time>
      </trkpt>
      <trkpt lat="44.11778" lon="6.31136">
        <ele>975.394775</ele>
        <time>2007-04-22T09:45:54Z</time>
      </trkpt>
      <trkpt lat="44.11761" lon="6.31105">
        <ele>978.759521</ele>
        <time>2007-04-22T09:46:12Z</time>
      </trkpt>
      <trkpt lat="44.11758" lon="6.31074">
        <ele>981.643311</ele>
        <time>2007-04-22T09:46:28Z</time>
      </trkpt>
      <trkpt lat="44.11752" lon="6.31051">
        <ele>983.565918</ele>
        <time>2007-04-22T09:46:41Z</time>
      </trkpt>
      <trkpt lat="44.11742" lon="6.31021">
        <ele>986.449951</ele>
        <time>2007-04-22T09:46:58Z</time>
      </trkpt>
      <trkpt lat="44.11741" lon="6.31003">
        <ele>987.891846</ele>
        <time>2007-04-22T09:47:09Z</time>
      </trkpt>
      <trkpt lat="44.11745" lon="6.30989">
        <ele>988.853516</ele>
        <time>2007-04-22T09:47:17Z</time>
      </trkpt>
      <trkpt lat="44.11752" lon="6.30972">
        <ele>990.775879</ele>
        <time>2007-04-22T09:47:28Z</time>
      </trkpt>
      <trkpt lat="44.11748" lon="6.30954">
        <ele>992.69873</ele>
        <time>2007-04-22T09:47:39Z</time>
      </trkpt>
      <trkpt lat="44.1174" lon="6.30923">
        <ele>996.063232</ele>
        <time>2007-04-22T09:47:58Z</time>
      </trkpt>
      <trkpt lat="44.11731" lon="6.30893">
        <ele>997.98584</ele>
        <time>2007-04-22T09:48:16Z</time>
      </trkpt>
      <trkpt lat="44.11727" lon="6.30871">
        <ele>1000.38916</ele>
        <time>2007-04-22T09:48:28Z</time>
      </trkpt>
      <trkpt lat="44.11725" lon="6.30863">
        <ele>1000.869629</ele>
        <time>2007-04-22T09:48:33Z</time>
      </trkpt>
      <trkpt lat="44.11725" lon="6.30854">
        <ele>1001.350342</ele>
        <time>2007-04-22T09:48:38Z</time>
      </trkpt>
      <trkpt lat="44.11742" lon="6.30834">
        <ele>1003.753662</ele>
        <time>2007-04-22T09:48:55Z</time>
      </trkpt>
      <trkpt lat="44.11758" lon="6.30824">
        <ele>1006.637695</ele>
        <time>2007-04-22T09:49:09Z</time>
      </trkpt>
      <trkpt lat="44.11776" lon="6.30814">
        <ele>1008.079834</ele>
        <time>2007-04-22T09:49:25Z</time>
      </trkpt>
      <trkpt lat="44.11798" lon="6.30797">
        <ele>1011.444336</ele>
        <time>2007-04-22T09:49:43Z</time>
      </trkpt>
      <trkpt lat="44.11801" lon="6.3079">
        <ele>1012.405518</ele>
        <time>2007-04-22T09:49:48Z</time>
      </trkpt>
      <trkpt lat="44.11797" lon="6.30781">
        <ele>1013.366943</ele>
        <time>2007-04-22T09:49:54Z</time>
      </trkpt>
      <trkpt lat="44.11787" lon="6.30746">
        <ele>1016.731445</ele>
        <time>2007-04-22T09:50:14Z</time>
      </trkpt>
      <trkpt lat="44.11785" lon="6.30714">
        <ele>1020.096191</ele>
        <time>2007-04-22T09:50:30Z</time>
      </trkpt>
      <trkpt lat="44.11786" lon="6.30681">
        <ele>1022.499512</ele>
        <time>2007-04-22T09:50:46Z</time>
      </trkpt>
      <trkpt lat="44.11788" lon="6.3066">
        <ele>1024.422119</ele>
        <time>2007-04-22T09:50:55Z</time>
      </trkpt>
      <trkpt lat="44.1178" lon="6.30655">
        <ele>1024.422119</ele>
        <time>2007-04-22T09:51:00Z</time>
      </trkpt>
      <trkpt lat="44.11751" lon="6.3066">
        <ele>1026.825439</ele>
        <time>2007-04-22T09:51:17Z</time>
      </trkpt>
      <trkpt lat="44.11732" lon="6.30649">
        <ele>1030.189941</ele>
        <time>2007-04-22T09:51:32Z</time>
      </trkpt>
      <trkpt lat="44.1172" lon="6.30623">
        <ele>1033.07373</ele>
        <time>2007-04-22T09:51:47Z</time>
      </trkpt>
      <trkpt lat="44.11717" lon="6.30587">
        <ele>1035.477051</ele>
        <time>2007-04-22T09:52:05Z</time>
      </trkpt>
      <trkpt lat="44.1172" lon="6.30553">
        <ele>1038.361328</ele>
        <time>2007-04-22T09:52:21Z</time>
      </trkpt>
      <trkpt lat="44.11719" lon="6.30518">
        <ele>1041.245117</ele>
        <time>2007-04-22T09:52:36Z</time>
      </trkpt>
      <trkpt lat="44.11709" lon="6.30487">
        <ele>1043.648438</ele>
        <time>2007-04-22T09:52:50Z</time>
      </trkpt>
      <trkpt lat="44.11672" lon="6.30486">
        <ele>1045.090332</ele>
        <time>2007-04-22T09:53:06Z</time>
      </trkpt>
      <trkpt lat="44.11666" lon="6.30485">
        <ele>1045.090332</ele>
        <time>2007-04-22T09:53:19Z</time>
      </trkpt>
      <trkpt lat="44.11665" lon="6.30486">
        <ele>1045.571045</ele>
        <time>2007-04-22T09:55:04Z</time>
      </trkpt>
      <trkpt lat="44.11662" lon="6.30484">
        <ele>1045.571045</ele>
        <time>2007-04-22T09:55:57Z</time>
      </trkpt>
      <trkpt lat="44.1166" lon="6.30475">
        <ele>1046.051758</ele>
        <time>2007-04-22T09:56:01Z</time>
      </trkpt>
      <trkpt lat="44.11658" lon="6.30471">
        <ele>1046.532471</ele>
        <time>2007-04-22T09:56:03Z</time>
      </trkpt>
      <trkpt lat="44.1166" lon="6.30465">
        <ele>1047.493652</ele>
        <time>2007-04-22T09:56:07Z</time>
      </trkpt>
      <trkpt lat="44.11674" lon="6.30464">
        <ele>1049.896973</ele>
        <time>2007-04-22T09:56:18Z</time>
      </trkpt>
      <trkpt lat="44.11684" lon="6.30452">
        <ele>1053.742432</ele>
        <time>2007-04-22T09:56:30Z</time>
      </trkpt>
      <trkpt lat="44.11702" lon="6.30441">
        <ele>1056.626221</ele>
        <time>2007-04-22T09:56:48Z</time>
      </trkpt>
      <trkpt lat="44.11712" lon="6.30433">
        <ele>1058.548828</ele>
        <time>2007-04-22T09:57:03Z</time>
      </trkpt>
      <trkpt lat="44.11719" lon="6.30427">
        <ele>1060.471436</ele>
        <time>2007-04-22T09:57:22Z</time>
      </trkpt>
      <trkpt lat="44.11723" lon="6.30424">
        <ele>1062.394043</ele>
        <time>2007-04-22T09:57:39Z</time>
      </trkpt>
      <trkpt lat="44.11723" lon="6.30423">
        <ele>1062.394043</ele>
        <time>2007-04-22T09:57:53Z</time>
      </trkpt>
      <trkpt lat="44.11732" lon="6.30407">
        <ele>1065.758789</ele>
        <time>2007-04-22T09:58:10Z</time>
      </trkpt>
      <trkpt lat="44.11739" lon="6.30396">
        <ele>1068.642822</ele>
        <time>2007-04-22T09:58:25Z</time>
      </trkpt>
      <trkpt lat="44.11748" lon="6.30383">
        <ele>1071.526611</ele>
        <time>2007-04-22T09:58:44Z</time>
      </trkpt>
      <trkpt lat="44.11751" lon="6.30381">
        <ele>1071.526611</ele>
        <time>2007-04-22T09:59:04Z</time>
      </trkpt>
      <trkpt lat="44.11753" lon="6.30381">
        <ele>1071.526611</ele>
        <time>2007-04-22T09:59:06Z</time>
      </trkpt>
      <trkpt lat="44.11767" lon="6.30374">
        <ele>1074.410645</ele>
        <time>2007-04-22T09:59:19Z</time>
      </trkpt>
      <trkpt lat="44.11782" lon="6.30376">
        <ele>1075.852539</ele>
        <time>2007-04-22T09:59:29Z</time>
      </trkpt>
      <trkpt lat="44.11806" lon="6.30396">
        <ele>1077.294678</ele>
        <time>2007-04-22T09:59:45Z</time>
      </trkpt>
      <trkpt lat="44.1183" lon="6.3041">
        <ele>1079.697754</ele>
        <time>2007-04-22T10:00:01Z</time>
      </trkpt>
      <trkpt lat="44.11848" lon="6.30421">
        <ele>1082.101074</ele>
        <time>2007-04-22T10:00:15Z</time>
      </trkpt>
      <trkpt lat="44.11875" lon="6.30438">
        <ele>1083.542969</ele>
        <time>2007-04-22T10:00:31Z</time>
      </trkpt>
      <trkpt lat="44.11904" lon="6.30454">
        <ele>1085.46582</ele>
        <time>2007-04-22T10:00:47Z</time>
      </trkpt>
      <trkpt lat="44.11932" lon="6.3046">
        <ele>1087.869141</ele>
        <time>2007-04-22T10:01:04Z</time>
      </trkpt>
      <trkpt lat="44.11951" lon="6.30466">
        <ele>1091.233643</ele>
        <time>2007-04-22T10:01:15Z</time>
      </trkpt>
      <trkpt lat="44.11975" lon="6.30461">
        <ele>1093.636963</ele>
        <time>2007-04-22T10:01:29Z</time>
      </trkpt>
      <trkpt lat="44.11999" lon="6.30441">
        <ele>1095.078857</ele>
        <time>2007-04-22T10:01:43Z</time>
      </trkpt>
      <trkpt lat="44.12001" lon="6.30431">
        <ele>1096.040283</ele>
        <time>2007-04-22T10:01:48Z</time>
      </trkpt>
      <trkpt lat="44.12" lon="6.30422">
        <ele>1096.520996</ele>
        <time>2007-04-22T10:01:52Z</time>
      </trkpt>
      <trkpt lat="44.12001" lon="6.30418">
        <ele>1097.482178</ele>
        <time>2007-04-22T10:02:05Z</time>
      </trkpt>
      <trkpt lat="44.12" lon="6.30418">
        <ele>1096.520996</ele>
        <time>2007-04-22T10:02:32Z</time>
      </trkpt>
      <trkpt lat="44.12" lon="6.3042">
        <ele>1097.001465</ele>
        <time>2007-04-22T10:03:04Z</time>
      </trkpt>
      <trkpt lat="44.12" lon="6.30421">
        <ele>1097.001465</ele>
        <time>2007-04-22T10:04:24Z</time>
      </trkpt>
      <trkpt lat="44.12" lon="6.30425">
        <ele>1097.001465</ele>
        <time>2007-04-22T10:04:45Z</time>
      </trkpt>
      <trkpt lat="44.12001" lon="6.30427">
        <ele>1097.482178</ele>
        <time>2007-04-22T10:04:58Z</time>
      </trkpt>
      <trkpt lat="44.12" lon="6.30425">
        <ele>1097.001465</ele>
        <time>2007-04-22T10:05:46Z</time>
      </trkpt>
      <trkpt lat="44.11996" lon="6.30421">
        <ele>1097.001465</ele>
        <time>2007-04-22T10:07:49Z</time>
      </trkpt>
      <trkpt lat="44.11998" lon="6.30413">
        <ele>1097.482178</ele>
        <time>2007-04-22T10:07:53Z</time>
      </trkpt>
      <trkpt lat="44.11997" lon="6.30404">
        <ele>1096.040283</ele>
        <time>2007-04-22T10:07:56Z</time>
      </trkpt>
      <trkpt lat="44.11995" lon="6.30391">
        <ele>1093.636963</ele>
        <time>2007-04-22T10:07:59Z</time>
      </trkpt>
      <trkpt lat="44.11993" lon="6.3037">
        <ele>1089.791748</ele>
        <time>2007-04-22T10:08:05Z</time>
      </trkpt>
      <trkpt lat="44.11991" lon="6.30367">
        <ele>1089.311035</ele>
        <time>2007-04-22T10:08:07Z</time>
      </trkpt>
      <trkpt lat="44.11992" lon="6.30345">
        <ele>1085.946533</ele>
        <time>2007-04-22T10:08:14Z</time>
      </trkpt>
      <trkpt lat="44.11994" lon="6.30339">
        <ele>1085.946533</ele>
        <time>2007-04-22T10:08:16Z</time>
      </trkpt>
      <trkpt lat="44.12003" lon="6.30316">
        <ele>1082.101074</ele>
        <time>2007-04-22T10:08:22Z</time>
      </trkpt>
      <trkpt lat="44.12005" lon="6.30311">
        <ele>1081.620361</ele>
        <time>2007-04-22T10:08:23Z</time>
      </trkpt>
      <trkpt lat="44.12007" lon="6.30297">
        <ele>1080.178467</ele>
        <time>2007-04-22T10:08:25Z</time>
      </trkpt>
      <trkpt lat="44.11999" lon="6.30247">
        <ele>1077.294678</ele>
        <time>2007-04-22T10:08:33Z</time>
      </trkpt>
      <trkpt lat="44.11998" lon="6.30233">
        <ele>1077.294678</ele>
        <time>2007-04-22T10:08:37Z</time>
      </trkpt>
      <trkpt lat="44.11984" lon="6.30188">
        <ele>1077.294678</ele>
        <time>2007-04-22T10:08:47Z</time>
      </trkpt>
      <trkpt lat="44.11982" lon="6.30184">
        <ele>1076.813965</ele>
        <time>2007-04-22T10:08:48Z</time>
      </trkpt>
      <trkpt lat="44.11978" lon="6.30142">
        <ele>1078.255859</ele>
        <time>2007-04-22T10:08:58Z</time>
      </trkpt>
      <trkpt lat="44.11977" lon="6.30094">
        <ele>1078.736572</ele>
        <time>2007-04-22T10:09:09Z</time>
      </trkpt>
      <trkpt lat="44.11976" lon="6.30089">
        <ele>1077.294678</ele>
        <time>2007-04-22T10:09:10Z</time>
      </trkpt>
      <trkpt lat="44.11961" lon="6.30066">
        <ele>1076.333252</ele>
        <time>2007-04-22T10:09:14Z</time>
      </trkpt>
      <trkpt lat="44.1195" lon="6.30037">
        <ele>1077.294678</ele>
        <time>2007-04-22T10:09:19Z</time>
      </trkpt>
      <trkpt lat="44.1193" lon="6.29998">
        <ele>1079.697754</ele>
        <time>2007-04-22T10:09:31Z</time>
      </trkpt>
      <trkpt lat="44.11927" lon="6.29979">
        <ele>1078.255859</ele>
        <time>2007-04-22T10:09:36Z</time>
      </trkpt>
      <trkpt lat="44.11933" lon="6.29967">
        <ele>1077.294678</ele>
        <time>2007-04-22T10:09:47Z</time>
      </trkpt>
      <trkpt lat="44.11936" lon="6.29961">
        <ele>1075.852539</ele>
        <time>2007-04-22T10:09:58Z</time>
      </trkpt>
      <trkpt lat="44.11947" lon="6.29943">
        <ele>1074.891357</ele>
        <time>2007-04-22T10:10:25Z</time>
      </trkpt>
      <trkpt lat="44.11971" lon="6.2993">
        <ele>1070.084717</ele>
        <time>2007-04-22T10:10:30Z</time>
      </trkpt>
      <trkpt lat="44.11978" lon="6.29919">
        <ele>1066.719971</ele>
        <time>2007-04-22T10:10:32Z</time>
      </trkpt>
      <trkpt lat="44.11988" lon="6.29874">
        <ele>1063.835938</ele>
        <time>2007-04-22T10:10:38Z</time>
      </trkpt>
      <trkpt lat="44.11992" lon="6.29856">
        <ele>1062.874756</ele>
        <time>2007-04-22T10:10:40Z</time>
      </trkpt>
      <trkpt lat="44.1198" lon="6.29778">
        <ele>1060.471436</ele>
        <time>2007-04-22T10:10:48Z</time>
      </trkpt>
      <trkpt lat="44.11975" lon="6.2976">
        <ele>1059.510254</ele>
        <time>2007-04-22T10:10:50Z</time>
      </trkpt>
      <trkpt lat="44.11973" lon="6.2975">
        <ele>1058.548828</ele>
        <time>2007-04-22T10:10:51Z</time>
      </trkpt>
      <trkpt lat="44.11964" lon="6.29715">
        <ele>1056.626221</ele>
        <time>2007-04-22T10:10:56Z</time>
      </trkpt>
      <trkpt lat="44.11959" lon="6.29704">
        <ele>1056.145508</ele>
        <time>2007-04-22T10:10:58Z</time>
      </trkpt>
      <trkpt lat="44.11955" lon="6.29688">
        <ele>1053.742432</ele>
        <time>2007-04-22T10:11:01Z</time>
      </trkpt>
      <trkpt lat="44.11954" lon="6.2965">
        <ele>1050.377686</ele>
        <time>2007-04-22T10:11:06Z</time>
      </trkpt>
      <trkpt lat="44.11956" lon="6.29648">
        <ele>1049.896973</ele>
        <time>2007-04-22T10:11:07Z</time>
      </trkpt>
      <trkpt lat="44.11969" lon="6.29625">
        <ele>1048.454834</ele>
        <time>2007-04-22T10:11:13Z</time>
      </trkpt>
      <trkpt lat="44.11967" lon="6.29615">
        <ele>1047.012939</ele>
        <time>2007-04-22T10:11:15Z</time>
      </trkpt>
      <trkpt lat="44.1196" lon="6.29594">
        <ele>1044.609619</ele>
        <time>2007-04-22T10:11:20Z</time>
      </trkpt>
      <trkpt lat="44.11958" lon="6.29588">
        <ele>1043.167725</ele>
        <time>2007-04-22T10:11:22Z</time>
      </trkpt>
      <trkpt lat="44.1195" lon="6.29566">
        <ele>1039.32251</ele>
        <time>2007-04-22T10:11:29Z</time>
      </trkpt>
      <trkpt lat="44.11948" lon="6.29563">
        <ele>1039.32251</ele>
        <time>2007-04-22T10:11:30Z</time>
      </trkpt>
      <trkpt lat="44.11935" lon="6.2954">
        <ele>1035.477051</ele>
        <time>2007-04-22T10:11:35Z</time>
      </trkpt>
      <trkpt lat="44.11933" lon="6.29534">
        <ele>1035.477051</ele>
        <time>2007-04-22T10:11:36Z</time>
      </trkpt>
      <trkpt lat="44.1193" lon="6.29524">
        <ele>1033.554443</ele>
        <time>2007-04-22T10:11:38Z</time>
      </trkpt>
      <trkpt lat="44.11928" lon="6.29501">
        <ele>1029.709229</ele>
        <time>2007-04-22T10:11:43Z</time>
      </trkpt>
      <trkpt lat="44.11927" lon="6.29496">
        <ele>1029.228516</ele>
        <time>2007-04-22T10:11:44Z</time>
      </trkpt>
      <trkpt lat="44.11922" lon="6.29479">
        <ele>1024.422119</ele>
        <time>2007-04-22T10:11:47Z</time>
      </trkpt>
      <trkpt lat="44.11918" lon="6.29464">
        <ele>1021.057617</ele>
        <time>2007-04-22T10:11:52Z</time>
      </trkpt>
      <trkpt lat="44.1192" lon="6.29459">
        <ele>1019.615479</ele>
        <time>2007-04-22T10:11:55Z</time>
      </trkpt>
      <trkpt lat="44.11917" lon="6.29451">
        <ele>1017.212158</ele>
        <time>2007-04-22T10:12:03Z</time>
      </trkpt>
      <trkpt lat="44.11922" lon="6.29451">
        <ele>1016.250732</ele>
        <time>2007-04-22T10:12:06Z</time>
      </trkpt>
      <trkpt lat="44.11913" lon="6.29438">
        <ele>1011.925049</ele>
        <time>2007-04-22T10:12:11Z</time>
      </trkpt>
      <trkpt lat="44.11901" lon="6.29438">
        <ele>1009.521729</ele>
        <time>2007-04-22T10:12:18Z</time>
      </trkpt>
      <trkpt lat="44.11903" lon="6.29428">
        <ele>1007.599121</ele>
        <time>2007-04-22T10:12:22Z</time>
      </trkpt>
      <trkpt lat="44.11916" lon="6.29419">
        <ele>1003.272949</ele>
        <time>2007-04-22T10:12:27Z</time>
      </trkpt>
      <trkpt lat="44.11923" lon="6.2942">
        <ele>1001.350342</ele>
        <time>2007-04-22T10:12:29Z</time>
      </trkpt>
      <trkpt lat="44.11924" lon="6.2941">
        <ele>996.543945</ele>
        <time>2007-04-22T10:12:34Z</time>
      </trkpt>
      <trkpt lat="44.11924" lon="6.29407">
        <ele>995.101807</ele>
        <time>2007-04-22T10:12:36Z</time>
      </trkpt>
      <trkpt lat="44.11924" lon="6.29406">
        <ele>995.101807</ele>
        <time>2007-04-22T10:12:37Z</time>
      </trkpt>
      <trkpt lat="44.11929" lon="6.29405">
        <ele>991.737305</ele>
        <time>2007-04-22T10:12:41Z</time>
      </trkpt>
      <trkpt lat="44.11928" lon="6.29397">
        <ele>988.853516</ele>
        <time>2007-04-22T10:12:45Z</time>
      </trkpt>
      <trkpt lat="44.11911" lon="6.29383">
        <ele>983.085205</ele>
        <time>2007-04-22T10:12:52Z</time>
      </trkpt>
      <trkpt lat="44.11908" lon="6.29379">
        <ele>981.643311</ele>
        <time>2007-04-22T10:13:01Z</time>
      </trkpt>
      <trkpt lat="44.11907" lon="6.29375">
        <ele>981.643311</ele>
        <time>2007-04-22T10:13:19Z</time>
      </trkpt>
      <trkpt lat="44.11907" lon="6.29374">
        <ele>981.643311</ele>
        <time>2007-04-22T10:13:26Z</time>
      </trkpt>
      <trkpt lat="44.11921" lon="6.29369">
        <ele>978.759521</ele>
        <time>2007-04-22T10:13:31Z</time>
      </trkpt>
      <trkpt lat="44.11927" lon="6.29367">
        <ele>975.394775</ele>
        <time>2007-04-22T10:13:33Z</time>
      </trkpt>
      <trkpt lat="44.11935" lon="6.29367">
        <ele>973.952881</ele>
        <time>2007-04-22T10:13:36Z</time>
      </trkpt>
      <trkpt lat="44.11944" lon="6.29367">
        <ele>971.068848</ele>
        <time>2007-04-22T10:13:39Z</time>
      </trkpt>
      <trkpt lat="44.11947" lon="6.29365">
        <ele>969.626953</ele>
        <time>2007-04-22T10:13:41Z</time>
      </trkpt>
      <trkpt lat="44.11939" lon="6.29354">
        <ele>965.301025</ele>
        <time>2007-04-22T10:13:45Z</time>
      </trkpt>
      <trkpt lat="44.1194" lon="6.29347">
        <ele>961.936523</ele>
        <time>2007-04-22T10:13:48Z</time>
      </trkpt>
      <trkpt lat="44.11946" lon="6.29339">
        <ele>958.571777</ele>
        <time>2007-04-22T10:13:51Z</time>
      </trkpt>
      <trkpt lat="44.11949" lon="6.29326">
        <ele>954.726318</ele>
        <time>2007-04-22T10:13:55Z</time>
      </trkpt>
      <trkpt lat="44.11948" lon="6.29317">
        <ele>951.361816</ele>
        <time>2007-04-22T10:13:58Z</time>
      </trkpt>
      <trkpt lat="44.11946" lon="6.29313">
        <ele>949.919922</ele>
        <time>2007-04-22T10:13:59Z</time>
      </trkpt>
      <trkpt lat="44.11939" lon="6.29302">
        <ele>947.516602</ele>
        <time>2007-04-22T10:14:02Z</time>
      </trkpt>
      <trkpt lat="44.11934" lon="6.2929">
        <ele>944.1521</ele>
        <time>2007-04-22T10:14:04Z</time>
      </trkpt>
      <trkpt lat="44.11924" lon="6.29288">
        <ele>940.306885</ele>
        <time>2007-04-22T10:14:08Z</time>
      </trkpt>
      <trkpt lat="44.11918" lon="6.29289">
        <ele>939.825928</ele>
        <time>2007-04-22T10:14:18Z</time>
      </trkpt>
      <trkpt lat="44.11917" lon="6.29287">
        <ele>940.306885</ele>
        <time>2007-04-22T10:15:20Z</time>
      </trkpt>
      <trkpt lat="44.11903" lon="6.2928">
        <ele>937.90332</ele>
        <time>2007-04-22T10:15:34Z</time>
      </trkpt>
      <trkpt lat="44.11898" lon="6.29269">
        <ele>935.019531</ele>
        <time>2007-04-22T10:15:37Z</time>
      </trkpt>
      <trkpt lat="44.11893" lon="6.29259">
        <ele>932.135498</ele>
        <time>2007-04-22T10:15:39Z</time>
      </trkpt>
      <trkpt lat="44.11876" lon="6.29248">
        <ele>928.770996</ele>
        <time>2007-04-22T10:15:42Z</time>
      </trkpt>
      <trkpt lat="44.11862" lon="6.2924">
        <ele>925.40625</ele>
        <time>2007-04-22T10:15:45Z</time>
      </trkpt>
      <trkpt lat="44.11843" lon="6.29233">
        <ele>920.599609</ele>
        <time>2007-04-22T10:15:49Z</time>
      </trkpt>
      <trkpt lat="44.11829" lon="6.29215">
        <ele>914.831787</ele>
        <time>2007-04-22T10:15:53Z</time>
      </trkpt>
      <trkpt lat="44.11811" lon="6.29205">
        <ele>910.986572</ele>
        <time>2007-04-22T10:15:57Z</time>
      </trkpt>
      <trkpt lat="44.11806" lon="6.29198">
        <ele>910.025146</ele>
        <time>2007-04-22T10:15:59Z</time>
      </trkpt>
      <trkpt lat="44.11799" lon="6.29187">
        <ele>906.6604</ele>
        <time>2007-04-22T10:16:02Z</time>
      </trkpt>
      <trkpt lat="44.11794" lon="6.29177">
        <ele>904.257324</ele>
        <time>2007-04-22T10:16:05Z</time>
      </trkpt>
      <trkpt lat="44.11787" lon="6.29173">
        <ele>901.373291</ele>
        <time>2007-04-22T10:16:08Z</time>
      </trkpt>
      <trkpt lat="44.11782" lon="6.29165">
        <ele>897.047363</ele>
        <time>2007-04-22T10:16:10Z</time>
      </trkpt>
      <trkpt lat="44.11773" lon="6.29154">
        <ele>893.202148</ele>
        <time>2007-04-22T10:16:13Z</time>
      </trkpt>
      <trkpt lat="44.11768" lon="6.29147">
        <ele>891.279297</ele>
        <time>2007-04-22T10:16:15Z</time>
      </trkpt>
      <trkpt lat="44.11757" lon="6.29132">
        <ele>886.953369</ele>
        <time>2007-04-22T10:16:19Z</time>
      </trkpt>
      <trkpt lat="44.11741" lon="6.29113">
        <ele>883.588867</ele>
        <time>2007-04-22T10:16:23Z</time>
      </trkpt>
      <trkpt lat="44.11728" lon="6.29099">
        <ele>880.705078</ele>
        <time>2007-04-22T10:16:26Z</time>
      </trkpt>
      <trkpt lat="44.11708" lon="6.29074">
        <ele>876.37915</ele>
        <time>2007-04-22T10:16:31Z</time>
      </trkpt>
      <trkpt lat="44.11702" lon="6.29065">
        <ele>874.937012</ele>
        <time>2007-04-22T10:16:33Z</time>
      </trkpt>
      <trkpt lat="44.11684" lon="6.29056">
        <ele>871.091797</ele>
        <time>2007-04-22T10:16:38Z</time>
      </trkpt>
      <trkpt lat="44.11683" lon="6.29057">
        <ele>871.572266</ele>
        <time>2007-04-22T10:16:54Z</time>
      </trkpt>
      <trkpt lat="44.11675" lon="6.29058">
        <ele>870.611084</ele>
        <time>2007-04-22T10:17:08Z</time>
      </trkpt>
      <trkpt lat="44.1167" lon="6.29043">
        <ele>870.130371</ele>
        <time>2007-04-22T10:17:12Z</time>
      </trkpt>
      <trkpt lat="44.11665" lon="6.29011">
        <ele>868.688477</ele>
        <time>2007-04-22T10:17:17Z</time>
      </trkpt>
      <trkpt lat="44.11645" lon="6.28988">
        <ele>867.246582</ele>
        <time>2007-04-22T10:17:23Z</time>
      </trkpt>
      <trkpt lat="44.11641" lon="6.28984">
        <ele>867.727051</ele>
        <time>2007-04-22T10:17:24Z</time>
      </trkpt>
      <trkpt lat="44.11624" lon="6.28951">
        <ele>866.285156</ele>
        <time>2007-04-22T10:17:30Z</time>
      </trkpt>
      <trkpt lat="44.11613" lon="6.2893">
        <ele>866.765869</ele>
        <time>2007-04-22T10:17:34Z</time>
      </trkpt>
      <trkpt lat="44.11609" lon="6.28919">
        <ele>866.765869</ele>
        <time>2007-04-22T10:17:36Z</time>
      </trkpt>
      <trkpt lat="44.11603" lon="6.28903">
        <ele>866.765869</ele>
        <time>2007-04-22T10:17:39Z</time>
      </trkpt>
      <trkpt lat="44.11596" lon="6.28865">
        <ele>866.285156</ele>
        <time>2007-04-22T10:17:45Z</time>
      </trkpt>
      <trkpt lat="44.11583" lon="6.28794">
        <ele>868.207764</ele>
        <time>2007-04-22T10:17:59Z</time>
      </trkpt>
      <trkpt lat="44.11586" lon="6.28785">
        <ele>868.207764</ele>
        <time>2007-04-22T10:18:02Z</time>
      </trkpt>
      <trkpt lat="44.11583" lon="6.28746">
        <ele>869.169189</ele>
        <time>2007-04-22T10:18:11Z</time>
      </trkpt>
      <trkpt lat="44.11582" lon="6.28739">
        <ele>869.649902</ele>
        <time>2007-04-22T10:18:13Z</time>
      </trkpt>
      <trkpt lat="44.11578" lon="6.28725">
        <ele>870.611084</ele>
        <time>2007-04-22T10:18:17Z</time>
      </trkpt>
      <trkpt lat="44.11577" lon="6.28708">
        <ele>871.572266</ele>
        <time>2007-04-22T10:18:22Z</time>
      </trkpt>
      <trkpt lat="44.11577" lon="6.28697">
        <ele>872.052979</ele>
        <time>2007-04-22T10:18:33Z</time>
      </trkpt>
      <trkpt lat="44.11576" lon="6.28695">
        <ele>871.572266</ele>
        <time>2007-04-22T10:18:38Z</time>
      </trkpt>
      <trkpt lat="44.11573" lon="6.28688">
        <ele>872.533691</ele>
        <time>2007-04-22T10:18:42Z</time>
      </trkpt>
      <trkpt lat="44.11566" lon="6.28654">
        <ele>873.975586</ele>
        <time>2007-04-22T10:18:54Z</time>
      </trkpt>
      <trkpt lat="44.11556" lon="6.28647">
        <ele>873.975586</ele>
        <time>2007-04-22T10:18:58Z</time>
      </trkpt>
      <trkpt lat="44.11526" lon="6.28614">
        <ele>869.169189</ele>
        <time>2007-04-22T10:19:06Z</time>
      </trkpt>
      <trkpt lat="44.11516" lon="6.28613">
        <ele>868.207764</ele>
        <time>2007-04-22T10:19:08Z</time>
      </trkpt>
      <trkpt lat="44.11502" lon="6.28611">
        <ele>867.246582</ele>
        <time>2007-04-22T10:19:11Z</time>
      </trkpt>
      <trkpt lat="44.11497" lon="6.28586">
        <ele>863.881836</ele>
        <time>2007-04-22T10:19:16Z</time>
      </trkpt>
      <trkpt lat="44.11482" lon="6.28569">
        <ele>861.47876</ele>
        <time>2007-04-22T10:19:20Z</time>
      </trkpt>
      <trkpt lat="44.11467" lon="6.2855">
        <ele>858.114014</ele>
        <time>2007-04-22T10:19:25Z</time>
      </trkpt>
      <trkpt lat="44.11462" lon="6.28546">
        <ele>858.114014</ele>
        <time>2007-04-22T10:19:26Z</time>
      </trkpt>
      <trkpt lat="44.11435" lon="6.28521">
        <ele>855.710693</ele>
        <time>2007-04-22T10:19:31Z</time>
      </trkpt>
      <trkpt lat="44.11424" lon="6.28517">
        <ele>855.710693</ele>
        <time>2007-04-22T10:19:33Z</time>
      </trkpt>
      <trkpt lat="44.11413" lon="6.28511">
        <ele>855.710693</ele>
        <time>2007-04-22T10:19:35Z</time>
      </trkpt>
      <trkpt lat="44.1139" lon="6.28493">
        <ele>853.788086</ele>
        <time>2007-04-22T10:19:40Z</time>
      </trkpt>
      <trkpt lat="44.11377" lon="6.28475">
        <ele>853.307373</ele>
        <time>2007-04-22T10:19:43Z</time>
      </trkpt>
      <trkpt lat="44.11369" lon="6.28462">
        <ele>852.82666</ele>
        <time>2007-04-22T10:19:45Z</time>
      </trkpt>
      <trkpt lat="44.1136" lon="6.2845">
        <ele>852.82666</ele>
        <time>2007-04-22T10:19:47Z</time>
      </trkpt>
      <trkpt lat="44.11326" lon="6.28419">
        <ele>850.423584</ele>
        <time>2007-04-22T10:19:55Z</time>
      </trkpt>
      <trkpt lat="44.11317" lon="6.28425">
        <ele>848.981445</ele>
        <time>2007-04-22T10:19:58Z</time>
      </trkpt>
      <trkpt lat="44.11312" lon="6.28424">
        <ele>848.500732</ele>
        <time>2007-04-22T10:20:00Z</time>
      </trkpt>
      <trkpt lat="44.11293" lon="6.28424">
        <ele>846.578369</ele>
        <time>2007-04-22T10:20:04Z</time>
      </trkpt>
      <trkpt lat="44.11268" lon="6.28425">
        <ele>842.73291</ele>
        <time>2007-04-22T10:20:08Z</time>
      </trkpt>
      <trkpt lat="44.11257" lon="6.28412">
        <ele>841.290771</ele>
        <time>2007-04-22T10:20:12Z</time>
      </trkpt>
      <trkpt lat="44.11242" lon="6.28405">
        <ele>839.368164</ele>
        <time>2007-04-22T10:20:16Z</time>
      </trkpt>
      <trkpt lat="44.11234" lon="6.28395">
        <ele>838.406982</ele>
        <time>2007-04-22T10:20:19Z</time>
      </trkpt>
      <trkpt lat="44.11219" lon="6.28378">
        <ele>836.964844</ele>
        <time>2007-04-22T10:20:23Z</time>
      </trkpt>
      <trkpt lat="44.11203" lon="6.28367">
        <ele>835.04248</ele>
        <time>2007-04-22T10:20:27Z</time>
      </trkpt>
      <trkpt lat="44.11165" lon="6.28361">
        <ele>834.081055</ele>
        <time>2007-04-22T10:20:34Z</time>
      </trkpt>
      <trkpt lat="44.11153" lon="6.28352">
        <ele>833.119629</ele>
        <time>2007-04-22T10:20:36Z</time>
      </trkpt>
      <trkpt lat="44.11128" lon="6.28333">
        <ele>832.63916</ele>
        <time>2007-04-22T10:20:44Z</time>
      </trkpt>
      <trkpt lat="44.11129" lon="6.28336">
        <ele>832.63916</ele>
        <time>2007-04-22T10:21:10Z</time>
      </trkpt>
      <trkpt lat="44.11122" lon="6.28341">
        <ele>832.63916</ele>
        <time>2007-04-22T10:21:23Z</time>
      </trkpt>
      <trkpt lat="44.11121" lon="6.28341">
        <ele>832.63916</ele>
        <time>2007-04-22T10:21:24Z</time>
      </trkpt>
      <trkpt lat="44.11109" lon="6.28339">
        <ele>835.04248</ele>
        <time>2007-04-22T10:21:32Z</time>
      </trkpt>
      <trkpt lat="44.11106" lon="6.28338">
        <ele>836.484375</ele>
        <time>2007-04-22T10:21:35Z</time>
      </trkpt>
      <trkpt lat="44.11103" lon="6.28341">
        <ele>836.964844</ele>
        <time>2007-04-22T10:21:43Z</time>
      </trkpt>
      <trkpt lat="44.11093" lon="6.28347">
        <ele>839.848877</ele>
        <time>2007-04-22T10:21:51Z</time>
      </trkpt>
      <trkpt lat="44.11088" lon="6.2835">
        <ele>841.290771</ele>
        <time>2007-04-22T10:21:55Z</time>
      </trkpt>
      <trkpt lat="44.11079" lon="6.28351">
        <ele>843.213379</ele>
        <time>2007-04-22T10:22:01Z</time>
      </trkpt>
      <trkpt lat="44.11074" lon="6.28347">
        <ele>844.175049</ele>
        <time>2007-04-22T10:22:05Z</time>
      </trkpt>
      <trkpt lat="44.11069" lon="6.28339">
        <ele>844.655518</ele>
        <time>2007-04-22T10:22:11Z</time>
      </trkpt>
      <trkpt lat="44.11063" lon="6.28334">
        <ele>845.616943</ele>
        <time>2007-04-22T10:22:17Z</time>
      </trkpt>
      <trkpt lat="44.11059" lon="6.28331">
        <ele>846.097656</ele>
        <time>2007-04-22T10:22:21Z</time>
      </trkpt>
      <trkpt lat="44.11047" lon="6.28319">
        <ele>849.942871</ele>
        <time>2007-04-22T10:22:32Z</time>
      </trkpt>
      <trkpt lat="44.1103" lon="6.28298">
        <ele>848.500732</ele>
        <time>2007-04-22T10:22:45Z</time>
      </trkpt>
      <trkpt lat="44.11019" lon="6.28267">
        <ele>848.981445</ele>
        <time>2007-04-22T10:22:57Z</time>
      </trkpt>
      <trkpt lat="44.11016" lon="6.28259">
        <ele>848.500732</ele>
        <time>2007-04-22T10:22:59Z</time>
      </trkpt>
      <trkpt lat="44.11006" lon="6.28252">
        <ele>846.578369</ele>
        <time>2007-04-22T10:23:03Z</time>
      </trkpt>
      <trkpt lat="44.10999" lon="6.28249">
        <ele>846.097656</ele>
        <time>2007-04-22T10:23:05Z</time>
      </trkpt>
      <trkpt lat="44.10973" lon="6.28238">
        <ele>839.848877</ele>
        <time>2007-04-22T10:23:10Z</time>
      </trkpt>
      <trkpt lat="44.10961" lon="6.2824">
        <ele>835.522949</ele>
        <time>2007-04-22T10:23:12Z</time>
      </trkpt>
      <trkpt lat="44.1095" lon="6.28245">
        <ele>832.158447</ele>
        <time>2007-04-22T10:23:15Z</time>
      </trkpt>
      <trkpt lat="44.1094" lon="6.28252">
        <ele>828.313232</ele>
        <time>2007-04-22T10:23:18Z</time>
      </trkpt>
      <trkpt lat="44.10921" lon="6.28251">
        <ele>824.467773</ele>
        <time>2007-04-22T10:23:21Z</time>
      </trkpt>
      <trkpt lat="44.10915" lon="6.28248">
        <ele>823.987061</ele>
        <time>2007-04-22T10:23:22Z</time>
      </trkpt>
      <trkpt lat="44.10901" lon="6.28237">
        <ele>820.141846</ele>
        <time>2007-04-22T10:23:25Z</time>
      </trkpt>
      <trkpt lat="44.10889" lon="6.28228">
        <ele>816.777344</ele>
        <time>2007-04-22T10:23:27Z</time>
      </trkpt>
      <trkpt lat="44.10867" lon="6.2821">
        <ele>812.451416</ele>
        <time>2007-04-22T10:23:31Z</time>
      </trkpt>
      <trkpt lat="44.1086" lon="6.28211">
        <ele>812.451416</ele>
        <time>2007-04-22T10:23:32Z</time>
      </trkpt>
      <trkpt lat="44.10844" lon="6.28214">
        <ele>808.125488</ele>
        <time>2007-04-22T10:23:35Z</time>
      </trkpt>
      <trkpt lat="44.10834" lon="6.28204">
        <ele>804.280273</ele>
        <time>2007-04-22T10:23:38Z</time>
      </trkpt>
      <trkpt lat="44.10833" lon="6.282">
        <ele>803.799561</ele>
        <time>2007-04-22T10:23:39Z</time>
      </trkpt>
      <trkpt lat="44.10811" lon="6.28157">
        <ele>795.147461</ele>
        <time>2007-04-22T10:23:45Z</time>
      </trkpt>
      <trkpt lat="44.10805" lon="6.28148">
        <ele>793.705566</ele>
        <time>2007-04-22T10:23:46Z</time>
      </trkpt>
      <trkpt lat="44.10783" lon="6.28122">
        <ele>788.89917</ele>
        <time>2007-04-22T10:23:49Z</time>
      </trkpt>
      <trkpt lat="44.10759" lon="6.28105">
        <ele>786.49585</ele>
        <time>2007-04-22T10:23:52Z</time>
      </trkpt>
      <trkpt lat="44.1075" lon="6.281">
        <ele>785.534424</ele>
        <time>2007-04-22T10:23:53Z</time>
      </trkpt>
      <trkpt lat="44.10739" lon="6.28096">
        <ele>783.611816</ele>
        <time>2007-04-22T10:23:55Z</time>
      </trkpt>
      <trkpt lat="44.10732" lon="6.28095">
        <ele>784.092529</ele>
        <time>2007-04-22T10:23:57Z</time>
      </trkpt>
      <trkpt lat="44.10726" lon="6.2809">
        <ele>785.053955</ele>
        <time>2007-04-22T10:24:09Z</time>
      </trkpt>
      <trkpt lat="44.10725" lon="6.28088">
        <ele>784.573242</ele>
        <time>2007-04-22T10:24:36Z</time>
      </trkpt>
      <trkpt lat="44.10725" lon="6.28089">
        <ele>784.573242</ele>
        <time>2007-04-22T10:24:59Z</time>
      </trkpt>
      <trkpt lat="44.10722" lon="6.28082">
        <ele>784.092529</ele>
        <time>2007-04-22T10:25:02Z</time>
      </trkpt>
      <trkpt lat="44.10716" lon="6.28069">
        <ele>783.611816</ele>
        <time>2007-04-22T10:25:06Z</time>
      </trkpt>
      <trkpt lat="44.10696" lon="6.28036">
        <ele>780.728027</ele>
        <time>2007-04-22T10:25:11Z</time>
      </trkpt>
      <trkpt lat="44.10676" lon="6.28023">
        <ele>779.285645</ele>
        <time>2007-04-22T10:25:15Z</time>
      </trkpt>
      <trkpt lat="44.10655" lon="6.28014">
        <ele>774.959961</ele>
        <time>2007-04-22T10:25:18Z</time>
      </trkpt>
      <trkpt lat="44.10633" lon="6.28018">
        <ele>771.595215</ele>
        <time>2007-04-22T10:25:22Z</time>
      </trkpt>
      <trkpt lat="44.10598" lon="6.28015">
        <ele>768.230713</ele>
        <time>2007-04-22T10:25:29Z</time>
      </trkpt>
      <trkpt lat="44.1059" lon="6.28012">
        <ele>766.788818</ele>
        <time>2007-04-22T10:25:31Z</time>
      </trkpt>
      <trkpt lat="44.10582" lon="6.28005">
        <ele>765.346924</ele>
        <time>2007-04-22T10:25:33Z</time>
      </trkpt>
      <trkpt lat="44.1056" lon="6.27995">
        <ele>761.020752</ele>
        <time>2007-04-22T10:25:39Z</time>
      </trkpt>
      <trkpt lat="44.10553" lon="6.27973">
        <ele>757.65625</ele>
        <time>2007-04-22T10:25:43Z</time>
      </trkpt>
      <trkpt lat="44.10547" lon="6.27971">
        <ele>757.65625</ele>
        <time>2007-04-22T10:25:44Z</time>
      </trkpt>
      <trkpt lat="44.10531" lon="6.27966">
        <ele>753.811035</ele>
        <time>2007-04-22T10:25:48Z</time>
      </trkpt>
      <trkpt lat="44.10527" lon="6.27964">
        <ele>754.291748</ele>
        <time>2007-04-22T10:25:49Z</time>
      </trkpt>
      <trkpt lat="44.10508" lon="6.27955">
        <ele>753.811035</ele>
        <time>2007-04-22T10:25:55Z</time>
      </trkpt>
      <trkpt lat="44.10503" lon="6.27955">
        <ele>753.330322</ele>
        <time>2007-04-22T10:25:56Z</time>
      </trkpt>
      <trkpt lat="44.10459" lon="6.27947">
        <ele>751.888428</ele>
        <time>2007-04-22T10:26:05Z</time>
      </trkpt>
      <trkpt lat="44.10442" lon="6.27939">
        <ele>749.96582</ele>
        <time>2007-04-22T10:26:09Z</time>
      </trkpt>
      <trkpt lat="44.10413" lon="6.27932">
        <ele>748.523682</ele>
        <time>2007-04-22T10:26:15Z</time>
      </trkpt>
      <trkpt lat="44.10396" lon="6.27935">
        <ele>746.601074</ele>
        <time>2007-04-22T10:26:19Z</time>
      </trkpt>
      <trkpt lat="44.10369" lon="6.27949">
        <ele>743.717041</ele>
        <time>2007-04-22T10:26:24Z</time>
      </trkpt>
      <trkpt lat="44.10358" lon="6.27953">
        <ele>742.755859</ele>
        <time>2007-04-22T10:26:26Z</time>
      </trkpt>
      <trkpt lat="44.10352" lon="6.27953">
        <ele>741.313721</ele>
        <time>2007-04-22T10:26:27Z</time>
      </trkpt>
      <trkpt lat="44.10329" lon="6.27962">
        <ele>736.507324</ele>
        <time>2007-04-22T10:26:31Z</time>
      </trkpt>
      <trkpt lat="44.10308" lon="6.27963">
        <ele>732.181396</ele>
        <time>2007-04-22T10:26:35Z</time>
      </trkpt>
      <trkpt lat="44.10298" lon="6.27962">
        <ele>730.258545</ele>
        <time>2007-04-22T10:26:37Z</time>
      </trkpt>
      <trkpt lat="44.10286" lon="6.27957">
        <ele>728.335938</ele>
        <time>2007-04-22T10:26:40Z</time>
      </trkpt>
      <trkpt lat="44.10274" lon="6.27942">
        <ele>725.451904</ele>
        <time>2007-04-22T10:26:43Z</time>
      </trkpt>
      <trkpt lat="44.10267" lon="6.27935">
        <ele>723.529541</ele>
        <time>2007-04-22T10:26:45Z</time>
      </trkpt>
      <trkpt lat="44.10251" lon="6.27922">
        <ele>718.242188</ele>
        <time>2007-04-22T10:26:49Z</time>
      </trkpt>
      <trkpt lat="44.10241" lon="6.27914">
        <ele>714.877441</ele>
        <time>2007-04-22T10:26:51Z</time>
      </trkpt>
      <trkpt lat="44.10236" lon="6.2791">
        <ele>713.916016</ele>
        <time>2007-04-22T10:26:52Z</time>
      </trkpt>
      <trkpt lat="44.10226" lon="6.27906">
        <ele>708.148438</ele>
        <time>2007-04-22T10:26:54Z</time>
      </trkpt>
      <trkpt lat="44.10216" lon="6.27908">
        <ele>704.783691</ele>
        <time>2007-04-22T10:26:57Z</time>
      </trkpt>
      <trkpt lat="44.10202" lon="6.27902">
        <ele>700.938477</ele>
        <time>2007-04-22T10:27:01Z</time>
      </trkpt>
      <trkpt lat="44.10196" lon="6.27901">
        <ele>699.015625</ele>
        <time>2007-04-22T10:27:03Z</time>
      </trkpt>
      <trkpt lat="44.10192" lon="6.27895">
        <ele>697.093018</ele>
        <time>2007-04-22T10:27:05Z</time>
      </trkpt>
      <trkpt lat="44.10187" lon="6.27892">
        <ele>695.651123</ele>
        <time>2007-04-22T10:27:07Z</time>
      </trkpt>
      <trkpt lat="44.10182" lon="6.27893">
        <ele>694.689697</ele>
        <time>2007-04-22T10:27:09Z</time>
      </trkpt>
      <trkpt lat="44.10163" lon="6.27896">
        <ele>692.767334</ele>
        <time>2007-04-22T10:27:18Z</time>
      </trkpt>
      <trkpt lat="44.10154" lon="6.27896">
        <ele>692.767334</ele>
        <time>2007-04-22T10:27:22Z</time>
      </trkpt>
      <trkpt lat="44.10144" lon="6.27894">
        <ele>689.883301</ele>
        <time>2007-04-22T10:27:31Z</time>
      </trkpt>
      <trkpt lat="44.10143" lon="6.27894">
        <ele>694.689697</ele>
        <time>2007-04-22T10:27:32Z</time>
      </trkpt>
      <trkpt lat="44.10141" lon="6.27889">
        <ele>693.247803</ele>
        <time>2007-04-22T10:27:44Z</time>
      </trkpt>
      <trkpt lat="44.10142" lon="6.27883">
        <ele>693.728516</ele>
        <time>2007-04-22T10:27:58Z</time>
      </trkpt>
      <trkpt lat="44.10141" lon="6.27882">
        <ele>693.728516</ele>
        <time>2007-04-22T10:28:17Z</time>
      </trkpt>
      <trkpt lat="44.10142" lon="6.27882">
        <ele>693.728516</ele>
        <time>2007-04-22T10:28:22Z</time>
      </trkpt>
      <trkpt lat="44.1012" lon="6.2786">
        <ele>691.805908</ele>
        <time>2007-04-22T10:28:33Z</time>
      </trkpt>
      <trkpt lat="44.10106" lon="6.27853">
        <ele>690.364014</ele>
        <time>2007-04-22T10:28:38Z</time>
      </trkpt>
      <trkpt lat="44.10108" lon="6.27834">
        <ele>690.844482</ele>
        <time>2007-04-22T10:28:43Z</time>
      </trkpt>
      <trkpt lat="44.10104" lon="6.27811">
        <ele>690.844482</ele>
        <time>2007-04-22T10:28:48Z</time>
      </trkpt>
      <trkpt lat="44.1009" lon="6.27805">
        <ele>691.805908</ele>
        <time>2007-04-22T10:28:55Z</time>
      </trkpt>
      <trkpt lat="44.10078" lon="6.27803">
        <ele>692.286621</ele>
        <time>2007-04-22T10:29:00Z</time>
      </trkpt>
      <trkpt lat="44.10051" lon="6.27784">
        <ele>692.286621</ele>
        <time>2007-04-22T10:29:10Z</time>
      </trkpt>
      <trkpt lat="44.10047" lon="6.27781">
        <ele>692.286621</ele>
        <time>2007-04-22T10:29:11Z</time>
      </trkpt>
      <trkpt lat="44.10024" lon="6.27765">
        <ele>689.402588</ele>
        <time>2007-04-22T10:29:15Z</time>
      </trkpt>
      <trkpt lat="44.10017" lon="6.27762">
        <ele>688.922119</ele>
        <time>2007-04-22T10:29:16Z</time>
      </trkpt>
      <trkpt lat="44.10001" lon="6.27742">
        <ele>685.076904</ele>
        <time>2007-04-22T10:29:21Z</time>
      </trkpt>
      <trkpt lat="44.09995" lon="6.27737">
        <ele>685.557373</ele>
        <time>2007-04-22T10:29:24Z</time>
      </trkpt>
      <trkpt lat="44.0999" lon="6.27732">
        <ele>686.518799</ele>
        <time>2007-04-22T10:29:28Z</time>
      </trkpt>
      <trkpt lat="44.0998" lon="6.27704">
        <ele>687.47998</ele>
        <time>2007-04-22T10:29:41Z</time>
      </trkpt>
      <trkpt lat="44.09973" lon="6.27682">
        <ele>685.557373</ele>
        <time>2007-04-22T10:29:46Z</time>
      </trkpt>
      <trkpt lat="44.0996" lon="6.27663">
        <ele>684.115479</ele>
        <time>2007-04-22T10:29:53Z</time>
      </trkpt>
      <trkpt lat="44.0994" lon="6.27651">
        <ele>685.557373</ele>
        <time>2007-04-22T10:30:01Z</time>
      </trkpt>
      <trkpt lat="44.09938" lon="6.27648">
        <ele>686.038086</ele>
        <time>2007-04-22T10:30:03Z</time>
      </trkpt>
      <trkpt lat="44.09929" lon="6.27644">
        <ele>687.47998</ele>
        <time>2007-04-22T10:30:09Z</time>
      </trkpt>
      <trkpt lat="44.09921" lon="6.2764">
        <ele>688.441406</ele>
        <time>2007-04-22T10:30:14Z</time>
      </trkpt>
      <trkpt lat="44.09899" lon="6.27617">
        <ele>685.557373</ele>
        <time>2007-04-22T10:30:24Z</time>
      </trkpt>
      <trkpt lat="44.09879" lon="6.2761">
        <ele>684.596191</ele>
        <time>2007-04-22T10:30:28Z</time>
      </trkpt>
      <trkpt lat="44.09864" lon="6.27606">
        <ele>682.67334</ele>
        <time>2007-04-22T10:30:32Z</time>
      </trkpt>
      <trkpt lat="44.09845" lon="6.276">
        <ele>678.347412</ele>
        <time>2007-04-22T10:30:36Z</time>
      </trkpt>
      <trkpt lat="44.09841" lon="6.27601">
        <ele>677.866699</ele>
        <time>2007-04-22T10:30:37Z</time>
      </trkpt>
      <trkpt lat="44.09835" lon="6.27609">
        <ele>676.905518</ele>
        <time>2007-04-22T10:30:41Z</time>
      </trkpt>
      <trkpt lat="44.0982" lon="6.27612">
        <ele>676.905518</ele>
        <time>2007-04-22T10:30:50Z</time>
      </trkpt>
      <trkpt lat="44.09812" lon="6.27608">
        <ele>676.905518</ele>
        <time>2007-04-22T10:30:53Z</time>
      </trkpt>
      <trkpt lat="44.09779" lon="6.27585">
        <ele>675.944092</ele>
        <time>2007-04-22T10:31:02Z</time>
      </trkpt>
      <trkpt lat="44.09766" lon="6.27573">
        <ele>676.424805</ele>
        <time>2007-04-22T10:31:06Z</time>
      </trkpt>
      <trkpt lat="44.09738" lon="6.27544">
        <ele>674.98291</ele>
        <time>2007-04-22T10:31:16Z</time>
      </trkpt>
      <trkpt lat="44.09715" lon="6.2751">
        <ele>676.424805</ele>
        <time>2007-04-22T10:31:28Z</time>
      </trkpt>
      <trkpt lat="44.09714" lon="6.27507">
        <ele>676.424805</ele>
        <time>2007-04-22T10:31:43Z</time>
      </trkpt>
      <trkpt lat="44.09709" lon="6.27502">
        <ele>676.424805</ele>
        <time>2007-04-22T10:32:45Z</time>
      </trkpt>
      <trkpt lat="44.09704" lon="6.27492">
        <ele>674.98291</ele>
        <time>2007-04-22T10:32:49Z</time>
      </trkpt>
      <trkpt lat="44.09677" lon="6.27478">
        <ele>672.57959</ele>
        <time>2007-04-22T10:32:55Z</time>
      </trkpt>
      <trkpt lat="44.09639" lon="6.27501">
        <ele>671.618164</ele>
        <time>2007-04-22T10:33:04Z</time>
      </trkpt>
      <trkpt lat="44.09617" lon="6.27489">
        <ele>670.656982</ele>
        <time>2007-04-22T10:33:10Z</time>
      </trkpt>
      <trkpt lat="44.09602" lon="6.27478">
        <ele>669.695801</ele>
        <time>2007-04-22T10:33:13Z</time>
      </trkpt>
      <trkpt lat="44.09561" lon="6.27472">
        <ele>669.695801</ele>
        <time>2007-04-22T10:33:23Z</time>
      </trkpt>
      <trkpt lat="44.09541" lon="6.2746">
        <ele>670.656982</ele>
        <time>2007-04-22T10:33:32Z</time>
      </trkpt>
      <trkpt lat="44.09501" lon="6.27447">
        <ele>671.137695</ele>
        <time>2007-04-22T10:33:45Z</time>
      </trkpt>
      <trkpt lat="44.09472" lon="6.27457">
        <ele>671.618164</ele>
        <time>2007-04-22T10:33:53Z</time>
      </trkpt>
      <trkpt lat="44.09465" lon="6.27453">
        <ele>670.656982</ele>
        <time>2007-04-22T10:33:55Z</time>
      </trkpt>
      <trkpt lat="44.09456" lon="6.27448">
        <ele>669.695801</ele>
        <time>2007-04-22T10:33:57Z</time>
      </trkpt>
      <trkpt lat="44.09449" lon="6.27406">
        <ele>666.811523</ele>
        <time>2007-04-22T10:34:04Z</time>
      </trkpt>
      <trkpt lat="44.09433" lon="6.2735">
        <ele>665.369629</ele>
        <time>2007-04-22T10:34:11Z</time>
      </trkpt>
      <trkpt lat="44.09427" lon="6.27348">
        <ele>664.888916</ele>
        <time>2007-04-22T10:34:12Z</time>
      </trkpt>
      <trkpt lat="44.094" lon="6.27327">
        <ele>664.408203</ele>
        <time>2007-04-22T10:34:17Z</time>
      </trkpt>
      <trkpt lat="44.0936" lon="6.27312">
        <ele>662.966309</ele>
        <time>2007-04-22T10:34:23Z</time>
      </trkpt>
      <trkpt lat="44.09323" lon="6.27291">
        <ele>661.524414</ele>
        <time>2007-04-22T10:34:29Z</time>
      </trkpt>
      <trkpt lat="44.09306" lon="6.27291">
        <ele>660.562988</ele>
        <time>2007-04-22T10:34:36Z</time>
      </trkpt>
      <trkpt lat="44.093" lon="6.27292">
        <ele>661.043701</ele>
        <time>2007-04-22T10:34:46Z</time>
      </trkpt>
      <trkpt lat="44.09299" lon="6.27294">
        <ele>660.562988</ele>
        <time>2007-04-22T10:34:58Z</time>
      </trkpt>
      <trkpt lat="44.09298" lon="6.27294">
        <ele>660.082275</ele>
        <time>2007-04-22T10:35:00Z</time>
      </trkpt>
      <trkpt lat="44.09264" lon="6.27293">
        <ele>659.601807</ele>
        <time>2007-04-22T10:35:11Z</time>
      </trkpt>
      <trkpt lat="44.09245" lon="6.27292">
        <ele>659.121094</ele>
        <time>2007-04-22T10:35:15Z</time>
      </trkpt>
      <trkpt lat="44.09216" lon="6.27299">
        <ele>658.159912</ele>
        <time>2007-04-22T10:35:21Z</time>
      </trkpt>
      <trkpt lat="44.09206" lon="6.273">
        <ele>658.159912</ele>
        <time>2007-04-22T10:35:23Z</time>
      </trkpt>
      <trkpt lat="44.09161" lon="6.27312">
        <ele>657.198486</ele>
        <time>2007-04-22T10:35:36Z</time>
      </trkpt>
      <trkpt lat="44.09155" lon="6.27311">
        <ele>656.717773</ele>
        <time>2007-04-22T10:35:38Z</time>
      </trkpt>
      <trkpt lat="44.09148" lon="6.27303">
        <ele>655.275879</ele>
        <time>2007-04-22T10:35:41Z</time>
      </trkpt>
      <trkpt lat="44.09123" lon="6.27264">
        <ele>655.756592</ele>
        <time>2007-04-22T10:35:54Z</time>
      </trkpt>
      <trkpt lat="44.09097" lon="6.27242">
        <ele>654.795166</ele>
        <time>2007-04-22T10:36:02Z</time>
      </trkpt>
      <trkpt lat="44.09085" lon="6.27223">
        <ele>655.275879</ele>
        <time>2007-04-22T10:36:06Z</time>
      </trkpt>
      <trkpt lat="44.09053" lon="6.2718">
        <ele>654.314697</ele>
        <time>2007-04-22T10:36:16Z</time>
      </trkpt>
      <trkpt lat="44.09045" lon="6.27137">
        <ele>655.275879</ele>
        <time>2007-04-22T10:36:27Z</time>
      </trkpt>
      <trkpt lat="44.09046" lon="6.27073">
        <ele>653.833984</ele>
        <time>2007-04-22T10:36:39Z</time>
      </trkpt>
      <trkpt lat="44.09041" lon="6.26941">
        <ele>652.872559</ele>
        <time>2007-04-22T10:36:57Z</time>
      </trkpt>
      <trkpt lat="44.0904" lon="6.26927">
        <ele>652.391846</ele>
        <time>2007-04-22T10:36:59Z</time>
      </trkpt>
      <trkpt lat="44.09035" lon="6.26905">
        <ele>652.391846</ele>
        <time>2007-04-22T10:37:02Z</time>
      </trkpt>
      <trkpt lat="44.09016" lon="6.26863">
        <ele>651.43042</ele>
        <time>2007-04-22T10:37:09Z</time>
      </trkpt>
      <trkpt lat="44.08978" lon="6.26792">
        <ele>651.911133</ele>
        <time>2007-04-22T10:37:21Z</time>
      </trkpt>
      <trkpt lat="44.08931" lon="6.2668">
        <ele>649.0271</ele>
        <time>2007-04-22T10:37:39Z</time>
      </trkpt>
      <trkpt lat="44.08895" lon="6.26562">
        <ele>646.624023</ele>
        <time>2007-04-22T10:37:55Z</time>
      </trkpt>
      <trkpt lat="44.0886" lon="6.26447">
        <ele>644.701172</ele>
        <time>2007-04-22T10:38:09Z</time>
      </trkpt>
      <trkpt lat="44.08851" lon="6.26418">
        <ele>644.220703</ele>
        <time>2007-04-22T10:38:13Z</time>
      </trkpt>
      <trkpt lat="44.08848" lon="6.26381">
        <ele>643.73999</ele>
        <time>2007-04-22T10:38:18Z</time>
      </trkpt>
      <trkpt lat="44.08871" lon="6.26267">
        <ele>642.298096</ele>
        <time>2007-04-22T10:38:34Z</time>
      </trkpt>
      <trkpt lat="44.0889" lon="6.26221">
        <ele>641.817383</ele>
        <time>2007-04-22T10:38:40Z</time>
      </trkpt>
      <trkpt lat="44.0895" lon="6.26139">
        <ele>640.855957</ele>
        <time>2007-04-22T10:38:53Z</time>
      </trkpt>
      <trkpt lat="44.08958" lon="6.26127">
        <ele>640.855957</ele>
        <time>2007-04-22T10:38:55Z</time>
      </trkpt>
      <trkpt lat="44.08969" lon="6.26097">
        <ele>640.375488</ele>
        <time>2007-04-22T10:38:59Z</time>
      </trkpt>
      <trkpt lat="44.08974" lon="6.26073">
        <ele>641.33667</ele>
        <time>2007-04-22T10:39:02Z</time>
      </trkpt>
      <trkpt lat="44.09008" lon="6.25956">
        <ele>640.855957</ele>
        <time>2007-04-22T10:39:17Z</time>
      </trkpt>
      <trkpt lat="44.09049" lon="6.25894">
        <ele>640.375488</ele>
        <time>2007-04-22T10:39:28Z</time>
      </trkpt>
      <trkpt lat="44.09066" lon="6.25837">
        <ele>640.375488</ele>
        <time>2007-04-22T10:39:36Z</time>
      </trkpt>
      <trkpt lat="44.09065" lon="6.25731">
        <ele>639.414063</ele>
        <time>2007-04-22T10:39:49Z</time>
      </trkpt>
      <trkpt lat="44.09052" lon="6.25701">
        <ele>638.452881</ele>
        <time>2007-04-22T10:39:53Z</time>
      </trkpt>
      <trkpt lat="44.09044" lon="6.25687">
        <ele>638.452881</ele>
        <time>2007-04-22T10:39:55Z</time>
      </trkpt>
      <trkpt lat="44.09034" lon="6.25656">
        <ele>637.972168</ele>
        <time>2007-04-22T10:39:59Z</time>
      </trkpt>
      <trkpt lat="44.09026" lon="6.25572">
        <ele>637.491455</ele>
        <time>2007-04-22T10:40:09Z</time>
      </trkpt>
      <trkpt lat="44.09011" lon="6.25543">
        <ele>635.568604</ele>
        <time>2007-04-22T10:40:13Z</time>
      </trkpt>
      <trkpt lat="44.08963" lon="6.2548">
        <ele>635.568604</ele>
        <time>2007-04-22T10:40:24Z</time>
      </trkpt>
      <trkpt lat="44.08942" lon="6.25448">
        <ele>635.568604</ele>
        <time>2007-04-22T10:40:30Z</time>
      </trkpt>
      <trkpt lat="44.08937" lon="6.25435">
        <ele>635.088135</ele>
        <time>2007-04-22T10:40:32Z</time>
      </trkpt>
      <trkpt lat="44.08931" lon="6.25397">
        <ele>635.088135</ele>
        <time>2007-04-22T10:40:37Z</time>
      </trkpt>
      <trkpt lat="44.08931" lon="6.25374">
        <ele>635.568604</ele>
        <time>2007-04-22T10:40:40Z</time>
      </trkpt>
      <trkpt lat="44.08935" lon="6.25303">
        <ele>637.010742</ele>
        <time>2007-04-22T10:40:50Z</time>
      </trkpt>
      <trkpt lat="44.08937" lon="6.25247">
        <ele>637.010742</ele>
        <time>2007-04-22T10:40:58Z</time>
      </trkpt>
      <trkpt lat="44.08942" lon="6.25221">
        <ele>636.049561</ele>
        <time>2007-04-22T10:41:02Z</time>
      </trkpt>
      <trkpt lat="44.08945" lon="6.25207">
        <ele>635.568604</ele>
        <time>2007-04-22T10:41:04Z</time>
      </trkpt>
      <trkpt lat="44.08953" lon="6.25168">
        <ele>634.126709</ele>
        <time>2007-04-22T10:41:09Z</time>
      </trkpt>
      <trkpt lat="44.08988" lon="6.25021">
        <ele>631.723389</ele>
        <time>2007-04-22T10:41:27Z</time>
      </trkpt>
      <trkpt lat="44.09002" lon="6.24992">
        <ele>631.24292</ele>
        <time>2007-04-22T10:41:31Z</time>
      </trkpt>
      <trkpt lat="44.09011" lon="6.24959">
        <ele>631.24292</ele>
        <time>2007-04-22T10:41:35Z</time>
      </trkpt>
      <trkpt lat="44.0902" lon="6.24923">
        <ele>630.762207</ele>
        <time>2007-04-22T10:41:39Z</time>
      </trkpt>
      <trkpt lat="44.09028" lon="6.24909">
        <ele>630.281494</ele>
        <time>2007-04-22T10:41:41Z</time>
      </trkpt>
      <trkpt lat="44.09057" lon="6.24874">
        <ele>629.320068</ele>
        <time>2007-04-22T10:41:47Z</time>
      </trkpt>
      <trkpt lat="44.09068" lon="6.24863">
        <ele>629.320068</ele>
        <time>2007-04-22T10:41:49Z</time>
      </trkpt>
      <trkpt lat="44.09112" lon="6.24777">
        <ele>626.916992</ele>
        <time>2007-04-22T10:42:01Z</time>
      </trkpt>
      <trkpt lat="44.09135" lon="6.24665">
        <ele>626.916992</ele>
        <time>2007-04-22T10:42:16Z</time>
      </trkpt>
      <trkpt lat="44.09136" lon="6.24657">
        <ele>626.916992</ele>
        <time>2007-04-22T10:42:17Z</time>
      </trkpt>
      <trkpt lat="44.09147" lon="6.24605">
        <ele>626.916992</ele>
        <time>2007-04-22T10:42:25Z</time>
      </trkpt>
      <trkpt lat="44.0915" lon="6.24587">
        <ele>626.916992</ele>
        <time>2007-04-22T10:42:28Z</time>
      </trkpt>
      <trkpt lat="44.09136" lon="6.24488">
        <ele>625.955566</ele>
        <time>2007-04-22T10:42:42Z</time>
      </trkpt>
      <trkpt lat="44.09127" lon="6.24426">
        <ele>624.513672</ele>
        <time>2007-04-22T10:42:50Z</time>
      </trkpt>
      <trkpt lat="44.09119" lon="6.24412">
        <ele>622.110352</ele>
        <time>2007-04-22T10:42:53Z</time>
      </trkpt>
      <trkpt lat="44.09108" lon="6.24418">
        <ele>621.14917</ele>
        <time>2007-04-22T10:42:56Z</time>
      </trkpt>
      <trkpt lat="44.09075" lon="6.24472">
        <ele>620.187744</ele>
        <time>2007-04-22T10:43:05Z</time>
      </trkpt>
      <trkpt lat="44.09068" lon="6.24504">
        <ele>619.707031</ele>
        <time>2007-04-22T10:43:09Z</time>
      </trkpt>
      <trkpt lat="44.09065" lon="6.2458">
        <ele>619.707031</ele>
        <time>2007-04-22T10:43:18Z</time>
      </trkpt>
      <trkpt lat="44.09055" lon="6.2461">
        <ele>620.187744</ele>
        <time>2007-04-22T10:43:22Z</time>
      </trkpt>
      <trkpt lat="44.09009" lon="6.24704">
        <ele>622.110352</ele>
        <time>2007-04-22T10:43:37Z</time>
      </trkpt>
      <trkpt lat="44.09005" lon="6.2471">
        <ele>622.110352</ele>
        <time>2007-04-22T10:43:38Z</time>
      </trkpt>
      <trkpt lat="44.08988" lon="6.24763">
        <ele>622.110352</ele>
        <time>2007-04-22T10:43:46Z</time>
      </trkpt>
      <trkpt lat="44.08986" lon="6.24822">
        <ele>623.071777</ele>
        <time>2007-04-22T10:43:54Z</time>
      </trkpt>
      <trkpt lat="44.0896" lon="6.24889">
        <ele>624.513672</ele>
        <time>2007-04-22T10:44:04Z</time>
      </trkpt>
      <trkpt lat="44.08909" lon="6.2492">
        <ele>624.513672</ele>
        <time>2007-04-22T10:44:14Z</time>
      </trkpt>
      <trkpt lat="44.08893" lon="6.24919">
        <ele>625.474854</ele>
        <time>2007-04-22T10:44:18Z</time>
      </trkpt>
      <trkpt lat="44.08883" lon="6.24885">
        <ele>624.994385</ele>
        <time>2007-04-22T10:44:25Z</time>
      </trkpt>
      <trkpt lat="44.08852" lon="6.24834">
        <ele>624.513672</ele>
        <time>2007-04-22T10:44:39Z</time>
      </trkpt>
      <trkpt lat="44.08813" lon="6.24804">
        <ele>625.474854</ele>
        <time>2007-04-22T10:44:52Z</time>
      </trkpt>
      <trkpt lat="44.08786" lon="6.24781">
        <ele>626.436279</ele>
        <time>2007-04-22T10:45:04Z</time>
      </trkpt>
      <trkpt lat="44.08784" lon="6.24781">
        <ele>626.436279</ele>
        <time>2007-04-22T10:45:05Z</time>
      </trkpt>
      <trkpt lat="44.08781" lon="6.24772">
        <ele>627.878174</ele>
        <time>2007-04-22T10:45:16Z</time>
      </trkpt>
      <trkpt lat="44.08781" lon="6.24769">
        <ele>627.878174</ele>
        <time>2007-04-22T10:46:21Z</time>
      </trkpt>
      <trkpt lat="44.08781" lon="6.2477">
        <ele>628.358887</ele>
        <time>2007-04-22T10:46:39Z</time>
      </trkpt>
      <trkpt lat="44.08807" lon="6.2479">
        <ele>626.916992</ele>
        <time>2007-04-22T10:46:50Z</time>
      </trkpt>
      <trkpt lat="44.08808" lon="6.24795">
        <ele>626.916992</ele>
        <time>2007-04-22T10:46:51Z</time>
      </trkpt>
      <trkpt lat="44.0883" lon="6.24831">
        <ele>625.955566</ele>
        <time>2007-04-22T10:46:59Z</time>
      </trkpt>
      <trkpt lat="44.08839" lon="6.24834">
        <ele>625.474854</ele>
        <time>2007-04-22T10:47:01Z</time>
      </trkpt>
      <trkpt lat="44.08864" lon="6.24838">
        <ele>624.994385</ele>
        <time>2007-04-22T10:47:07Z</time>
      </trkpt>
      <trkpt lat="44.08875" lon="6.24852">
        <ele>625.474854</ele>
        <time>2007-04-22T10:47:11Z</time>
      </trkpt>
      <trkpt lat="44.08899" lon="6.24922">
        <ele>625.474854</ele>
        <time>2007-04-22T10:47:27Z</time>
      </trkpt>
      <trkpt lat="44.08912" lon="6.24925">
        <ele>624.994385</ele>
        <time>2007-04-22T10:47:30Z</time>
      </trkpt>
      <trkpt lat="44.08946" lon="6.24909">
        <ele>624.994385</ele>
        <time>2007-04-22T10:47:38Z</time>
      </trkpt>
      <trkpt lat="44.08967" lon="6.2489">
        <ele>625.474854</ele>
        <time>2007-04-22T10:47:43Z</time>
      </trkpt>
      <trkpt lat="44.08984" lon="6.24861">
        <ele>624.032959</ele>
        <time>2007-04-22T10:47:48Z</time>
      </trkpt>
      <trkpt lat="44.08991" lon="6.24812">
        <ele>622.591064</ele>
        <time>2007-04-22T10:47:54Z</time>
      </trkpt>
      <trkpt lat="44.08989" lon="6.24785">
        <ele>622.591064</ele>
        <time>2007-04-22T10:47:57Z</time>
      </trkpt>
      <trkpt lat="44.09018" lon="6.24684">
        <ele>621.629639</ele>
        <time>2007-04-22T10:48:09Z</time>
      </trkpt>
      <trkpt lat="44.09066" lon="6.24584">
        <ele>619.707031</ele>
        <time>2007-04-22T10:48:23Z</time>
      </trkpt>
      <trkpt lat="44.09073" lon="6.24506">
        <ele>620.187744</ele>
        <time>2007-04-22T10:48:33Z</time>
      </trkpt>
      <trkpt lat="44.09083" lon="6.24465">
        <ele>619.707031</ele>
        <time>2007-04-22T10:48:39Z</time>
      </trkpt>
      <trkpt lat="44.09113" lon="6.24414">
        <ele>621.14917</ele>
        <time>2007-04-22T10:48:49Z</time>
      </trkpt>
      <trkpt lat="44.09119" lon="6.2439">
        <ele>622.110352</ele>
        <time>2007-04-22T10:48:53Z</time>
      </trkpt>
      <trkpt lat="44.0912" lon="6.2436">
        <ele>621.629639</ele>
        <time>2007-04-22T10:48:57Z</time>
      </trkpt>
      <trkpt lat="44.09121" lon="6.24335">
        <ele>619.707031</ele>
        <time>2007-04-22T10:49:00Z</time>
      </trkpt>
      <trkpt lat="44.09117" lon="6.24309">
        <ele>617.78418</ele>
        <time>2007-04-22T10:49:03Z</time>
      </trkpt>
      <trkpt lat="44.09113" lon="6.24301">
        <ele>617.303711</ele>
        <time>2007-04-22T10:49:04Z</time>
      </trkpt>
      <trkpt lat="44.09054" lon="6.24185">
        <ele>615.861816</ele>
        <time>2007-04-22T10:49:20Z</time>
      </trkpt>
      <trkpt lat="44.09037" lon="6.24152">
        <ele>615.381104</ele>
        <time>2007-04-22T10:49:25Z</time>
      </trkpt>
      <trkpt lat="44.09012" lon="6.24103">
        <ele>614.419678</ele>
        <time>2007-04-22T10:49:32Z</time>
      </trkpt>
      <trkpt lat="44.08972" lon="6.23986">
        <ele>612.016602</ele>
        <time>2007-04-22T10:49:46Z</time>
      </trkpt>
      <trkpt lat="44.0898" lon="6.23869">
        <ele>611.535889</ele>
        <time>2007-04-22T10:49:58Z</time>
      </trkpt>
      <trkpt lat="44.08983" lon="6.2385">
        <ele>610.574463</ele>
        <time>2007-04-22T10:50:00Z</time>
      </trkpt>
      <trkpt lat="44.09008" lon="6.23728">
        <ele>610.09375</ele>
        <time>2007-04-22T10:50:13Z</time>
      </trkpt>
      <trkpt lat="44.09018" lon="6.23705">
        <ele>611.055176</ele>
        <time>2007-04-22T10:50:16Z</time>
      </trkpt>
      <trkpt lat="44.09021" lon="6.2368">
        <ele>610.574463</ele>
        <time>2007-04-22T10:50:19Z</time>
      </trkpt>
      <trkpt lat="44.09023" lon="6.23663">
        <ele>610.09375</ele>
        <time>2007-04-22T10:50:21Z</time>
      </trkpt>
      <trkpt lat="44.09048" lon="6.23521">
        <ele>608.651855</ele>
        <time>2007-04-22T10:50:36Z</time>
      </trkpt>
      <trkpt lat="44.09053" lon="6.23475">
        <ele>608.171387</ele>
        <time>2007-04-22T10:50:41Z</time>
      </trkpt>
      <trkpt lat="44.09052" lon="6.23438">
        <ele>608.651855</ele>
        <time>2007-04-22T10:50:45Z</time>
      </trkpt>
      <trkpt lat="44.09051" lon="6.2343">
        <ele>608.171387</ele>
        <time>2007-04-22T10:50:46Z</time>
      </trkpt>
      <trkpt lat="44.09051" lon="6.23413">
        <ele>607.209961</ele>
        <time>2007-04-22T10:50:48Z</time>
      </trkpt>
      <trkpt lat="44.09059" lon="6.23345">
        <ele>606.248535</ele>
        <time>2007-04-22T10:50:56Z</time>
      </trkpt>
      <trkpt lat="44.09062" lon="6.23321">
        <ele>605.768066</ele>
        <time>2007-04-22T10:50:59Z</time>
      </trkpt>
      <trkpt lat="44.09051" lon="6.233">
        <ele>605.768066</ele>
        <time>2007-04-22T10:51:03Z</time>
      </trkpt>
      <trkpt lat="44.09003" lon="6.23279">
        <ele>604.806641</ele>
        <time>2007-04-22T10:51:12Z</time>
      </trkpt>
      <trkpt lat="44.08913" lon="6.23217">
        <ele>602.883789</ele>
        <time>2007-04-22T10:51:27Z</time>
      </trkpt>
      <trkpt lat="44.08863" lon="6.23182">
        <ele>602.883789</ele>
        <time>2007-04-22T10:51:36Z</time>
      </trkpt>
      <trkpt lat="44.08846" lon="6.23177">
        <ele>602.403076</ele>
        <time>2007-04-22T10:51:40Z</time>
      </trkpt>
      <trkpt lat="44.08837" lon="6.23174">
        <ele>603.364502</ele>
        <time>2007-04-22T10:51:51Z</time>
      </trkpt>
      <trkpt lat="44.08851" lon="6.23177">
        <ele>602.403076</ele>
        <time>2007-04-22T10:51:59Z</time>
      </trkpt>
      <trkpt lat="44.08871" lon="6.23186">
        <ele>601.441895</ele>
        <time>2007-04-22T10:52:16Z</time>
      </trkpt>
      <trkpt lat="44.08909" lon="6.23215">
        <ele>602.883789</ele>
        <time>2007-04-22T10:52:29Z</time>
      </trkpt>
      <trkpt lat="44.08942" lon="6.23231">
        <ele>603.364502</ele>
        <time>2007-04-22T10:52:38Z</time>
      </trkpt>
      <trkpt lat="44.08991" lon="6.23265">
        <ele>604.326172</ele>
        <time>2007-04-22T10:52:51Z</time>
      </trkpt>
      <trkpt lat="44.09036" lon="6.23293">
        <ele>605.287354</ele>
        <time>2007-04-22T10:53:03Z</time>
      </trkpt>
      <trkpt lat="44.0906" lon="6.233">
        <ele>605.768066</ele>
        <time>2007-04-22T10:53:10Z</time>
      </trkpt>
      <trkpt lat="44.09074" lon="6.23258">
        <ele>604.326172</ele>
        <time>2007-04-22T10:53:19Z</time>
      </trkpt>
      <trkpt lat="44.09073" lon="6.23253">
        <ele>603.845215</ele>
        <time>2007-04-22T10:53:20Z</time>
      </trkpt>
      <trkpt lat="44.09066" lon="6.23219">
        <ele>603.364502</ele>
        <time>2007-04-22T10:53:30Z</time>
      </trkpt>
      <trkpt lat="44.09069" lon="6.23223">
        <ele>603.364502</ele>
        <time>2007-04-22T10:53:55Z</time>
      </trkpt>
      <trkpt lat="44.0907" lon="6.23226">
        <ele>602.403076</ele>
        <time>2007-04-22T10:54:32Z</time>
      </trkpt>
      <trkpt lat="44.09077" lon="6.23229">
        <ele>601.922607</ele>
        <time>2007-04-22T10:57:57Z</time>
      </trkpt>
      <trkpt lat="44.09078" lon="6.23224">
        <ele>601.922607</ele>
        <time>2007-04-22T10:59:18Z</time>
      </trkpt>
      <trkpt lat="44.09095" lon="6.23232">
        <ele>600.961182</ele>
        <time>2007-04-22T11:00:30Z</time>
      </trkpt>
      <trkpt lat="44.09098" lon="6.23232">
        <ele>605.768066</ele>
        <time>2007-04-22T11:01:26Z</time>
      </trkpt>
      <trkpt lat="44.09097" lon="6.23232">
        <ele>600.961182</ele>
        <time>2007-04-22T11:01:29Z</time>
      </trkpt>
      <trkpt lat="44.09097" lon="6.23232">
        <ele>600.961182</ele>
        <time>2007-04-22T11:01:30Z</time>
      </trkpt>
      <trkpt lat="44.09096" lon="6.23232">
        <ele>603.845215</ele>
        <time>2007-04-22T11:01:32Z</time>
      </trkpt>
      <trkpt lat="44.09093" lon="6.23229">
        <ele>606.729248</ele>
        <time>2007-04-22T11:01:52Z</time>
      </trkpt>
      <trkpt lat="44.09092" lon="6.23229">
        <ele>603.364502</ele>
        <time>2007-04-22T11:01:53Z</time>
      </trkpt>
      <trkpt lat="44.09084" lon="6.23224">
        <ele>603.364502</ele>
        <time>2007-04-22T11:02:22Z</time>
      </trkpt>
      <trkpt lat="44.09067" lon="6.2324">
        <ele>603.364502</ele>
        <time>2007-04-22T11:03:35Z</time>
      </trkpt>
      <trkpt lat="44.09083" lon="6.23233">
        <ele>604.326172</ele>
        <time>2007-04-22T11:06:35Z</time>
      </trkpt>
      <trkpt lat="44.09064" lon="6.23227">
        <ele>604.806641</ele>
        <time>2007-04-22T11:11:58Z</time>
      </trkpt>
      <trkpt lat="44.09059" lon="6.23234">
        <ele>604.806641</ele>
        <time>2007-04-22T11:15:00Z</time>
      </trkpt>
      <trkpt lat="44.09069" lon="6.23217">
        <ele>604.326172</ele>
        <time>2007-04-22T11:24:36Z</time>
      </trkpt>
      <trkpt lat="44.09063" lon="6.23233">
        <ele>603.845215</ele>
        <time>2007-04-22T11:25:50Z</time>
      </trkpt>
      <trkpt lat="44.09066" lon="6.23223">
        <ele>601.922607</ele>
        <time>2007-04-22T11:39:18Z</time>
      </trkpt>
      <trkpt lat="44.09068" lon="6.23219">
        <ele>601.441895</ele>
        <time>2007-04-22T11:40:01Z</time>
      </trkpt>
      <trkpt lat="44.0906" lon="6.23233">
        <ele>601.441895</ele>
        <time>2007-04-22T11:45:01Z</time>
      </trkpt>
      <trkpt lat="44.09065" lon="6.23227">
        <ele>609.613281</ele>
        <time>2007-04-22T11:46:19Z</time>
      </trkpt>
    </trkseg>
  </trk>
</gpx>